<?xml version="1.0" encoding="UTF-8" standalone="no" ?>
<gpx xmlns="http://www.topografix.com/GPX/1/1" xmlns:xsi="http://www.w3.org/2001/XMLSchema-instance" xsi:schemaLocation="http://www.topografix.com/GPX/1/1 http://www.topografix.com/GPX/1/1/gpx.xsd" version="1.1" creator="VisuGPX - https://www.visugpx.com">
  <metadata>
    <name>2022-09-19 13:44</name>
    <desc><![CDATA[File with points/tracks from Locus Map/4.11.1]]></desc>
  </metadata>
  <trk>
    <name><![CDATA[2022-09-19 13:44]]></name>
    <extensions>
      <line xmlns="http://www.topografix.com/GPX/gpx_style/0/2">
        <color>0000FF</color>
        <opacity>0.59</opacity>
        <width>6.0</width>
      </line>
    </extensions>
    <trkseg>
      <trkpt lat="49.52054" lon="3.7539">
        <ele>112.04</ele>
        <time>2022-09-19T11:44:58.000Z</time>
      </trkpt>
      <trkpt lat="49.52054" lon="3.75393">
        <ele>112.03</ele>
        <time>2022-09-19T11:45:08.000Z</time>
      </trkpt>
      <trkpt lat="49.52053" lon="3.75392">
        <ele>112.03</ele>
        <time>2022-09-19T11:45:18.000Z</time>
      </trkpt>
      <trkpt lat="49.52058" lon="3.75383">
        <ele>112.5</ele>
        <time>2022-09-19T11:45:28.000Z</time>
      </trkpt>
      <trkpt lat="49.52057" lon="3.75385">
        <ele>112.03</ele>
        <time>2022-09-19T11:46:37.000Z</time>
      </trkpt>
      <trkpt lat="49.52057" lon="3.75388">
        <ele>112.53</ele>
        <time>2022-09-19T11:46:47.000Z</time>
      </trkpt>
      <trkpt lat="49.52056" lon="3.75385">
        <ele>112.53</ele>
        <time>2022-09-19T11:47:04.000Z</time>
      </trkpt>
      <trkpt lat="49.52056" lon="3.75382">
        <ele>112.53</ele>
        <time>2022-09-19T11:47:14.000Z</time>
      </trkpt>
      <trkpt lat="49.52056" lon="3.75383">
        <ele>110.27</ele>
        <time>2022-09-19T11:48:23.000Z</time>
      </trkpt>
      <trkpt lat="49.52058" lon="3.75386">
        <ele>110.23</ele>
        <time>2022-09-19T11:48:33.000Z</time>
      </trkpt>
      <trkpt lat="49.52057" lon="3.75386">
        <ele>112.03</ele>
        <time>2022-09-19T11:50:13.000Z</time>
      </trkpt>
      <trkpt lat="49.52059" lon="3.75386">
        <ele>110.23</ele>
        <time>2022-09-19T11:50:47.000Z</time>
      </trkpt>
      <trkpt lat="49.5206" lon="3.75387">
        <ele>110.23</ele>
        <time>2022-09-19T11:50:57.000Z</time>
      </trkpt>
      <trkpt lat="49.52061" lon="3.75385">
        <ele>112.16</ele>
        <time>2022-09-19T11:51:24.000Z</time>
      </trkpt>
      <trkpt lat="49.5206" lon="3.75377">
        <ele>112.03</ele>
        <time>2022-09-19T11:51:34.000Z</time>
      </trkpt>
      <trkpt lat="49.5206" lon="3.75374">
        <ele>112.03</ele>
        <time>2022-09-19T11:51:44.000Z</time>
      </trkpt>
      <trkpt lat="49.5206" lon="3.75378">
        <ele>112.03</ele>
        <time>2022-09-19T11:51:54.000Z</time>
      </trkpt>
      <trkpt lat="49.52059" lon="3.75386">
        <ele>112.06</ele>
        <time>2022-09-19T11:52:04.000Z</time>
      </trkpt>
      <trkpt lat="49.52058" lon="3.75387">
        <ele>112.03</ele>
        <time>2022-09-19T11:52:51.000Z</time>
      </trkpt>
      <trkpt lat="49.52056" lon="3.75389">
        <ele>112.42</ele>
        <time>2022-09-19T11:53:01.000Z</time>
      </trkpt>
      <trkpt lat="49.52057" lon="3.75387">
        <ele>112.43</ele>
        <time>2022-09-19T11:54:34.000Z</time>
      </trkpt>
      <trkpt lat="49.52057" lon="3.75389">
        <ele>112.03</ele>
        <time>2022-09-19T11:54:46.000Z</time>
      </trkpt>
      <trkpt lat="49.52056" lon="3.75389">
        <ele>112.41</ele>
        <time>2022-09-19T11:54:58.000Z</time>
      </trkpt>
      <trkpt lat="49.52057" lon="3.75386">
        <ele>112.03</ele>
        <time>2022-09-19T11:55:08.000Z</time>
      </trkpt>
      <trkpt lat="49.52057" lon="3.75388">
        <ele>112.03</ele>
        <time>2022-09-19T11:55:18.000Z</time>
      </trkpt>
      <trkpt lat="49.52057" lon="3.75389">
        <ele>112.03</ele>
        <time>2022-09-19T11:55:29.000Z</time>
      </trkpt>
      <trkpt lat="49.52056" lon="3.7539">
        <ele>112.03</ele>
        <time>2022-09-19T11:55:42.000Z</time>
      </trkpt>
      <trkpt lat="49.52057" lon="3.75389">
        <ele>112.06</ele>
        <time>2022-09-19T11:56:02.000Z</time>
      </trkpt>
      <trkpt lat="49.52058" lon="3.75389">
        <ele>112.43</ele>
        <time>2022-09-19T11:56:17.000Z</time>
      </trkpt>
      <trkpt lat="49.52058" lon="3.75388">
        <ele>112.43</ele>
        <time>2022-09-19T11:56:27.000Z</time>
      </trkpt>
      <trkpt lat="49.52056" lon="3.75386">
        <ele>112.43</ele>
        <time>2022-09-19T11:56:37.000Z</time>
      </trkpt>
      <trkpt lat="49.52054" lon="3.75385">
        <ele>112.53</ele>
        <time>2022-09-19T12:00:28.000Z</time>
      </trkpt>
      <trkpt lat="49.52049" lon="3.75383">
        <ele>112.53</ele>
        <time>2022-09-19T12:00:38.000Z</time>
      </trkpt>
      <trkpt lat="49.52047" lon="3.75381">
        <ele>112.04</ele>
        <time>2022-09-19T12:00:48.000Z</time>
      </trkpt>
      <trkpt lat="49.52048" lon="3.75381">
        <ele>112.04</ele>
        <time>2022-09-19T12:01:27.000Z</time>
      </trkpt>
      <trkpt lat="49.52049" lon="3.75379">
        <ele>112.03</ele>
        <time>2022-09-19T12:01:37.000Z</time>
      </trkpt>
      <trkpt lat="49.52053" lon="3.75375">
        <ele>110.23</ele>
        <time>2022-09-19T12:02:54.000Z</time>
      </trkpt>
      <trkpt lat="49.52055" lon="3.75372">
        <ele>112.53</ele>
        <time>2022-09-19T12:03:04.000Z</time>
      </trkpt>
      <trkpt lat="49.52054" lon="3.75374">
        <ele>110.23</ele>
        <time>2022-09-19T12:03:31.000Z</time>
      </trkpt>
      <trkpt lat="49.52053" lon="3.75376">
        <ele>110.23</ele>
        <time>2022-09-19T12:03:41.000Z</time>
      </trkpt>
      <trkpt lat="49.52052" lon="3.75376">
        <ele>110.23</ele>
        <time>2022-09-19T12:04:03.000Z</time>
      </trkpt>
      <trkpt lat="49.52052" lon="3.75377">
        <ele>110.23</ele>
        <time>2022-09-19T12:04:13.000Z</time>
      </trkpt>
      <trkpt lat="49.52051" lon="3.75377">
        <ele>110.23</ele>
        <time>2022-09-19T12:04:23.000Z</time>
      </trkpt>
      <trkpt lat="49.5205" lon="3.75379">
        <ele>112.52</ele>
        <time>2022-09-19T12:04:54.000Z</time>
      </trkpt>
      <trkpt lat="49.5205" lon="3.75385">
        <ele>110.23</ele>
        <time>2022-09-19T12:05:04.000Z</time>
      </trkpt>
      <trkpt lat="49.52043" lon="3.75395">
        <ele>112.43</ele>
        <time>2022-09-19T12:05:14.000Z</time>
      </trkpt>
      <trkpt lat="49.5204" lon="3.75407">
        <ele>112.43</ele>
        <time>2022-09-19T12:05:24.000Z</time>
      </trkpt>
      <trkpt lat="49.52032" lon="3.75422">
        <ele>112.43</ele>
        <time>2022-09-19T12:05:34.146Z</time>
      </trkpt>
      <trkpt lat="49.52027" lon="3.75434">
        <ele>112.43</ele>
        <time>2022-09-19T12:05:43.528Z</time>
      </trkpt>
      <trkpt lat="49.52027" lon="3.75447">
        <ele>112.43</ele>
        <time>2022-09-19T12:05:52.985Z</time>
      </trkpt>
      <trkpt lat="49.52031" lon="3.75454">
        <ele>112.43</ele>
        <time>2022-09-19T12:06:02.450Z</time>
      </trkpt>
      <trkpt lat="49.52035" lon="3.75467">
        <ele>112.43</ele>
        <time>2022-09-19T12:06:12.000Z</time>
      </trkpt>
      <trkpt lat="49.52037" lon="3.75497">
        <ele>112.43</ele>
        <time>2022-09-19T12:06:22.000Z</time>
      </trkpt>
      <trkpt lat="49.52039" lon="3.75521">
        <ele>112.43</ele>
        <time>2022-09-19T12:06:31.390Z</time>
      </trkpt>
      <trkpt lat="49.52042" lon="3.75536">
        <ele>110.03</ele>
        <time>2022-09-19T12:06:40.581Z</time>
      </trkpt>
      <trkpt lat="49.52047" lon="3.75549">
        <ele>110.03</ele>
        <time>2022-09-19T12:06:49.866Z</time>
      </trkpt>
      <trkpt lat="49.52051" lon="3.75565">
        <ele>109.73</ele>
        <time>2022-09-19T12:06:59.266Z</time>
      </trkpt>
      <trkpt lat="49.52054" lon="3.75583">
        <ele>109.73</ele>
        <time>2022-09-19T12:07:08.529Z</time>
      </trkpt>
      <trkpt lat="49.52059" lon="3.75599">
        <ele>109.63</ele>
        <time>2022-09-19T12:07:17.781Z</time>
      </trkpt>
      <trkpt lat="49.52063" lon="3.75616">
        <ele>109.63</ele>
        <time>2022-09-19T12:07:26.969Z</time>
      </trkpt>
      <trkpt lat="49.52064" lon="3.75633">
        <ele>109.73</ele>
        <time>2022-09-19T12:07:35.992Z</time>
      </trkpt>
      <trkpt lat="49.52064" lon="3.7565">
        <ele>109.83</ele>
        <time>2022-09-19T12:07:45.000Z</time>
      </trkpt>
      <trkpt lat="49.52067" lon="3.75672">
        <ele>109.73</ele>
        <time>2022-09-19T12:07:54.778Z</time>
      </trkpt>
      <trkpt lat="49.52071" lon="3.75679">
        <ele>109.73</ele>
        <time>2022-09-19T12:08:04.050Z</time>
      </trkpt>
      <trkpt lat="49.52072" lon="3.75688">
        <ele>109.73</ele>
        <time>2022-09-19T12:08:14.000Z</time>
      </trkpt>
      <trkpt lat="49.52077" lon="3.75708">
        <ele>109.45</ele>
        <time>2022-09-19T12:08:23.582Z</time>
      </trkpt>
      <trkpt lat="49.52085" lon="3.75718">
        <ele>109.43</ele>
        <time>2022-09-19T12:08:32.886Z</time>
      </trkpt>
      <trkpt lat="49.52085" lon="3.7573">
        <ele>109.13</ele>
        <time>2022-09-19T12:08:42.000Z</time>
      </trkpt>
      <trkpt lat="49.52092" lon="3.75743">
        <ele>108.73</ele>
        <time>2022-09-19T12:08:51.470Z</time>
      </trkpt>
      <trkpt lat="49.52095" lon="3.7576">
        <ele>108.73</ele>
        <time>2022-09-19T12:09:00.707Z</time>
      </trkpt>
      <trkpt lat="49.52099" lon="3.75779">
        <ele>108.73</ele>
        <time>2022-09-19T12:09:10.000Z</time>
      </trkpt>
      <trkpt lat="49.52105" lon="3.75801">
        <ele>108.73</ele>
        <time>2022-09-19T12:09:20.000Z</time>
      </trkpt>
      <trkpt lat="49.52113" lon="3.7582">
        <ele>107.93</ele>
        <time>2022-09-19T12:09:29.806Z</time>
      </trkpt>
      <trkpt lat="49.52121" lon="3.75834">
        <ele>107.85</ele>
        <time>2022-09-19T12:09:39.127Z</time>
      </trkpt>
      <trkpt lat="49.52128" lon="3.75852">
        <ele>107.83</ele>
        <time>2022-09-19T12:09:48.526Z</time>
      </trkpt>
      <trkpt lat="49.52134" lon="3.75866">
        <ele>107.83</ele>
        <time>2022-09-19T12:09:57.630Z</time>
      </trkpt>
      <trkpt lat="49.52138" lon="3.75883">
        <ele>107.83</ele>
        <time>2022-09-19T12:10:06.781Z</time>
      </trkpt>
      <trkpt lat="49.52141" lon="3.75901">
        <ele>107.83</ele>
        <time>2022-09-19T12:10:15.881Z</time>
      </trkpt>
      <trkpt lat="49.52147" lon="3.75914">
        <ele>107.9</ele>
        <time>2022-09-19T12:10:24.952Z</time>
      </trkpt>
      <trkpt lat="49.52153" lon="3.75927">
        <ele>107.93</ele>
        <time>2022-09-19T12:10:35.000Z</time>
      </trkpt>
      <trkpt lat="49.5216" lon="3.75944">
        <ele>107.93</ele>
        <time>2022-09-19T12:10:44.825Z</time>
      </trkpt>
      <trkpt lat="49.52166" lon="3.75961">
        <ele>107.93</ele>
        <time>2022-09-19T12:10:55.000Z</time>
      </trkpt>
      <trkpt lat="49.52167" lon="3.75983">
        <ele>109.43</ele>
        <time>2022-09-19T12:11:05.000Z</time>
      </trkpt>
      <trkpt lat="49.52171" lon="3.76002">
        <ele>109.43</ele>
        <time>2022-09-19T12:11:14.251Z</time>
      </trkpt>
      <trkpt lat="49.52175" lon="3.76016">
        <ele>109.42</ele>
        <time>2022-09-19T12:11:24.000Z</time>
      </trkpt>
      <trkpt lat="49.52182" lon="3.7603">
        <ele>109.42</ele>
        <time>2022-09-19T12:11:34.000Z</time>
      </trkpt>
      <trkpt lat="49.52189" lon="3.76046">
        <ele>109.42</ele>
        <time>2022-09-19T12:11:43.862Z</time>
      </trkpt>
      <trkpt lat="49.52198" lon="3.76059">
        <ele>109.42</ele>
        <time>2022-09-19T12:11:52.926Z</time>
      </trkpt>
      <trkpt lat="49.52202" lon="3.7608">
        <ele>109.52</ele>
        <time>2022-09-19T12:12:02.172Z</time>
      </trkpt>
      <trkpt lat="49.52208" lon="3.76094">
        <ele>109.52</ele>
        <time>2022-09-19T12:12:11.466Z</time>
      </trkpt>
      <trkpt lat="49.52211" lon="3.7611">
        <ele>109.72</ele>
        <time>2022-09-19T12:12:20.724Z</time>
      </trkpt>
      <trkpt lat="49.52213" lon="3.76127">
        <ele>109.72</ele>
        <time>2022-09-19T12:12:30.028Z</time>
      </trkpt>
      <trkpt lat="49.52217" lon="3.76141">
        <ele>109.72</ele>
        <time>2022-09-19T12:12:39.288Z</time>
      </trkpt>
      <trkpt lat="49.52225" lon="3.76154">
        <ele>109.42</ele>
        <time>2022-09-19T12:12:48.610Z</time>
      </trkpt>
      <trkpt lat="49.52226" lon="3.76174">
        <ele>109.42</ele>
        <time>2022-09-19T12:12:57.872Z</time>
      </trkpt>
      <trkpt lat="49.52236" lon="3.76173">
        <ele>109.42</ele>
        <time>2022-09-19T12:13:07.330Z</time>
      </trkpt>
      <trkpt lat="49.52248" lon="3.76176">
        <ele>109.5</ele>
        <time>2022-09-19T12:13:16.750Z</time>
      </trkpt>
      <trkpt lat="49.52257" lon="3.76178">
        <ele>109.42</ele>
        <time>2022-09-19T12:13:26.688Z</time>
      </trkpt>
      <trkpt lat="49.52266" lon="3.76178">
        <ele>111.88</ele>
        <time>2022-09-19T12:13:37.000Z</time>
      </trkpt>
      <trkpt lat="49.52279" lon="3.76175">
        <ele>109.42</ele>
        <time>2022-09-19T12:13:46.984Z</time>
      </trkpt>
      <trkpt lat="49.5229" lon="3.76184">
        <ele>111.92</ele>
        <time>2022-09-19T12:13:57.068Z</time>
      </trkpt>
      <trkpt lat="49.52302" lon="3.76183">
        <ele>112.02</ele>
        <time>2022-09-19T12:14:06.251Z</time>
      </trkpt>
      <trkpt lat="49.52314" lon="3.76182">
        <ele>112.02</ele>
        <time>2022-09-19T12:14:15.543Z</time>
      </trkpt>
      <trkpt lat="49.52325" lon="3.76183">
        <ele>112.02</ele>
        <time>2022-09-19T12:14:26.000Z</time>
      </trkpt>
      <trkpt lat="49.52336" lon="3.76183">
        <ele>112.02</ele>
        <time>2022-09-19T12:14:35.605Z</time>
      </trkpt>
      <trkpt lat="49.52347" lon="3.76182">
        <ele>112.02</ele>
        <time>2022-09-19T12:14:44.803Z</time>
      </trkpt>
      <trkpt lat="49.52357" lon="3.76178">
        <ele>112.02</ele>
        <time>2022-09-19T12:14:54.048Z</time>
      </trkpt>
      <trkpt lat="49.52366" lon="3.76174">
        <ele>112.02</ele>
        <time>2022-09-19T12:15:04.000Z</time>
      </trkpt>
      <trkpt lat="49.52379" lon="3.7617">
        <ele>112.02</ele>
        <time>2022-09-19T12:15:14.000Z</time>
      </trkpt>
      <trkpt lat="49.52393" lon="3.76162">
        <ele>112.02</ele>
        <time>2022-09-19T12:15:23.387Z</time>
      </trkpt>
      <trkpt lat="49.52405" lon="3.76155">
        <ele>112.02</ele>
        <time>2022-09-19T12:15:32.806Z</time>
      </trkpt>
      <trkpt lat="49.52418" lon="3.76148">
        <ele>112.02</ele>
        <time>2022-09-19T12:15:42.066Z</time>
      </trkpt>
      <trkpt lat="49.5243" lon="3.76141">
        <ele>112.02</ele>
        <time>2022-09-19T12:15:51.326Z</time>
      </trkpt>
      <trkpt lat="49.52443" lon="3.76137">
        <ele>112.02</ele>
        <time>2022-09-19T12:16:00.487Z</time>
      </trkpt>
      <trkpt lat="49.52453" lon="3.76133">
        <ele>112.02</ele>
        <time>2022-09-19T12:16:09.870Z</time>
      </trkpt>
      <trkpt lat="49.52463" lon="3.76129">
        <ele>112.02</ele>
        <time>2022-09-19T12:16:20.000Z</time>
      </trkpt>
      <trkpt lat="49.52475" lon="3.76127">
        <ele>112.02</ele>
        <time>2022-09-19T12:16:29.410Z</time>
      </trkpt>
      <trkpt lat="49.52486" lon="3.76123">
        <ele>112.02</ele>
        <time>2022-09-19T12:16:38.785Z</time>
      </trkpt>
      <trkpt lat="49.52497" lon="3.76122">
        <ele>112.02</ele>
        <time>2022-09-19T12:16:47.914Z</time>
      </trkpt>
      <trkpt lat="49.52508" lon="3.76122">
        <ele>112.02</ele>
        <time>2022-09-19T12:16:57.937Z</time>
      </trkpt>
      <trkpt lat="49.52515" lon="3.76121">
        <ele>112.02</ele>
        <time>2022-09-19T12:17:07.270Z</time>
      </trkpt>
      <trkpt lat="49.52525" lon="3.76121">
        <ele>112.02</ele>
        <time>2022-09-19T12:17:16.565Z</time>
      </trkpt>
      <trkpt lat="49.52537" lon="3.76124">
        <ele>120.62</ele>
        <time>2022-09-19T12:17:27.000Z</time>
      </trkpt>
      <trkpt lat="49.52551" lon="3.76127">
        <ele>120.04</ele>
        <time>2022-09-19T12:17:36.872Z</time>
      </trkpt>
      <trkpt lat="49.52559" lon="3.76127">
        <ele>120.12</ele>
        <time>2022-09-19T12:17:47.000Z</time>
      </trkpt>
      <trkpt lat="49.52571" lon="3.76128">
        <ele>120.06</ele>
        <time>2022-09-19T12:17:56.629Z</time>
      </trkpt>
      <trkpt lat="49.52583" lon="3.76136">
        <ele>119.89</ele>
        <time>2022-09-19T12:18:05.966Z</time>
      </trkpt>
      <trkpt lat="49.52593" lon="3.7614">
        <ele>119.7</ele>
        <time>2022-09-19T12:18:15.869Z</time>
      </trkpt>
      <trkpt lat="49.52601" lon="3.76145">
        <ele>119.66</ele>
        <time>2022-09-19T12:18:26.000Z</time>
      </trkpt>
      <trkpt lat="49.52614" lon="3.76149">
        <ele>120.18</ele>
        <time>2022-09-19T12:18:36.000Z</time>
      </trkpt>
      <trkpt lat="49.52627" lon="3.76153">
        <ele>120.53</ele>
        <time>2022-09-19T12:18:45.052Z</time>
      </trkpt>
      <trkpt lat="49.52638" lon="3.76156">
        <ele>120.83</ele>
        <time>2022-09-19T12:18:54.969Z</time>
      </trkpt>
      <trkpt lat="49.5265" lon="3.76159">
        <ele>120.8</ele>
        <time>2022-09-19T12:19:04.302Z</time>
      </trkpt>
      <trkpt lat="49.52659" lon="3.76162">
        <ele>121</ele>
        <time>2022-09-19T12:19:13.446Z</time>
      </trkpt>
      <trkpt lat="49.52667" lon="3.76154">
        <ele>121.25</ele>
        <time>2022-09-19T12:19:22.450Z</time>
      </trkpt>
      <trkpt lat="49.52666" lon="3.76134">
        <ele>121.28</ele>
        <time>2022-09-19T12:19:32.649Z</time>
      </trkpt>
      <trkpt lat="49.52663" lon="3.76116">
        <ele>121.53</ele>
        <time>2022-09-19T12:19:42.000Z</time>
      </trkpt>
      <trkpt lat="49.52661" lon="3.76095">
        <ele>121.28</ele>
        <time>2022-09-19T12:19:51.566Z</time>
      </trkpt>
      <trkpt lat="49.52662" lon="3.76079">
        <ele>121.17</ele>
        <time>2022-09-19T12:20:01.000Z</time>
      </trkpt>
      <trkpt lat="49.52659" lon="3.7606">
        <ele>121.29</ele>
        <time>2022-09-19T12:20:10.311Z</time>
      </trkpt>
      <trkpt lat="49.52656" lon="3.76044">
        <ele>121.77</ele>
        <time>2022-09-19T12:20:19.461Z</time>
      </trkpt>
      <trkpt lat="49.52656" lon="3.76028">
        <ele>122.13</ele>
        <time>2022-09-19T12:20:29.000Z</time>
      </trkpt>
      <trkpt lat="49.52655" lon="3.76009">
        <ele>121.9</ele>
        <time>2022-09-19T12:20:39.000Z</time>
      </trkpt>
      <trkpt lat="49.52651" lon="3.75992">
        <ele>121.21</ele>
        <time>2022-09-19T12:20:49.000Z</time>
      </trkpt>
      <trkpt lat="49.52646" lon="3.75974">
        <ele>120.59</ele>
        <time>2022-09-19T12:20:59.429Z</time>
      </trkpt>
      <trkpt lat="49.52643" lon="3.75957">
        <ele>119.86</ele>
        <time>2022-09-19T12:21:08.987Z</time>
      </trkpt>
      <trkpt lat="49.52643" lon="3.7594">
        <ele>119.25</ele>
        <time>2022-09-19T12:21:18.429Z</time>
      </trkpt>
      <trkpt lat="49.52642" lon="3.75925">
        <ele>118.69</ele>
        <time>2022-09-19T12:21:27.913Z</time>
      </trkpt>
      <trkpt lat="49.52639" lon="3.75911">
        <ele>118.04</ele>
        <time>2022-09-19T12:21:37.386Z</time>
      </trkpt>
      <trkpt lat="49.52636" lon="3.75897">
        <ele>117.59</ele>
        <time>2022-09-19T12:21:46.452Z</time>
      </trkpt>
      <trkpt lat="49.52631" lon="3.75883">
        <ele>117.08</ele>
        <time>2022-09-19T12:21:57.000Z</time>
      </trkpt>
      <trkpt lat="49.52627" lon="3.75867">
        <ele>116.86</ele>
        <time>2022-09-19T12:22:06.868Z</time>
      </trkpt>
      <trkpt lat="49.52622" lon="3.75853">
        <ele>116.43</ele>
        <time>2022-09-19T12:22:16.052Z</time>
      </trkpt>
      <trkpt lat="49.52619" lon="3.75839">
        <ele>115.59</ele>
        <time>2022-09-19T12:22:26.000Z</time>
      </trkpt>
      <trkpt lat="49.5262" lon="3.75822">
        <ele>114.85</ele>
        <time>2022-09-19T12:22:35.090Z</time>
      </trkpt>
      <trkpt lat="49.52621" lon="3.75803">
        <ele>114.94</ele>
        <time>2022-09-19T12:22:45.000Z</time>
      </trkpt>
      <trkpt lat="49.52623" lon="3.75783">
        <ele>115.47</ele>
        <time>2022-09-19T12:22:55.000Z</time>
      </trkpt>
      <trkpt lat="49.52623" lon="3.75764">
        <ele>116.27</ele>
        <time>2022-09-19T12:23:04.546Z</time>
      </trkpt>
      <trkpt lat="49.52615" lon="3.75759">
        <ele>106.63</ele>
        <time>2022-09-19T12:23:13.870Z</time>
      </trkpt>
      <trkpt lat="49.52604" lon="3.75758">
        <ele>106.63</ele>
        <time>2022-09-19T12:23:23.250Z</time>
      </trkpt>
      <trkpt lat="49.52594" lon="3.75758">
        <ele>106.63</ele>
        <time>2022-09-19T12:23:33.000Z</time>
      </trkpt>
      <trkpt lat="49.52584" lon="3.75757">
        <ele>106.63</ele>
        <time>2022-09-19T12:23:42.048Z</time>
      </trkpt>
      <trkpt lat="49.52572" lon="3.75754">
        <ele>106.63</ele>
        <time>2022-09-19T12:23:51.382Z</time>
      </trkpt>
      <trkpt lat="49.52563" lon="3.75755">
        <ele>106.63</ele>
        <time>2022-09-19T12:24:00.410Z</time>
      </trkpt>
      <trkpt lat="49.5256" lon="3.75737">
        <ele>106.63</ele>
        <time>2022-09-19T12:24:10.052Z</time>
      </trkpt>
      <trkpt lat="49.52559" lon="3.7572">
        <ele>105.33</ele>
        <time>2022-09-19T12:24:20.000Z</time>
      </trkpt>
      <trkpt lat="49.5256" lon="3.75703">
        <ele>106.63</ele>
        <time>2022-09-19T12:24:29.591Z</time>
      </trkpt>
      <trkpt lat="49.52562" lon="3.75687">
        <ele>106.63</ele>
        <time>2022-09-19T12:24:39.000Z</time>
      </trkpt>
      <trkpt lat="49.52564" lon="3.75666">
        <ele>106.63</ele>
        <time>2022-09-19T12:24:49.000Z</time>
      </trkpt>
      <trkpt lat="49.52561" lon="3.7565">
        <ele>106.63</ele>
        <time>2022-09-19T12:24:58.050Z</time>
      </trkpt>
      <trkpt lat="49.52558" lon="3.75634">
        <ele>106.63</ele>
        <time>2022-09-19T12:25:07.565Z</time>
      </trkpt>
      <trkpt lat="49.5256" lon="3.75617">
        <ele>106.63</ele>
        <time>2022-09-19T12:25:17.102Z</time>
      </trkpt>
      <trkpt lat="49.52557" lon="3.75602">
        <ele>106.63</ele>
        <time>2022-09-19T12:25:27.000Z</time>
      </trkpt>
      <trkpt lat="49.5256" lon="3.75586">
        <ele>106.43</ele>
        <time>2022-09-19T12:25:36.571Z</time>
      </trkpt>
      <trkpt lat="49.52562" lon="3.75575">
        <ele>106.43</ele>
        <time>2022-09-19T12:25:46.000Z</time>
      </trkpt>
      <trkpt lat="49.52569" lon="3.75559">
        <ele>106.43</ele>
        <time>2022-09-19T12:25:55.311Z</time>
      </trkpt>
      <trkpt lat="49.52581" lon="3.75552">
        <ele>106.43</ele>
        <time>2022-09-19T12:26:05.113Z</time>
      </trkpt>
      <trkpt lat="49.52591" lon="3.7555">
        <ele>106.43</ele>
        <time>2022-09-19T12:26:14.548Z</time>
      </trkpt>
      <trkpt lat="49.526" lon="3.75548">
        <ele>106.23</ele>
        <time>2022-09-19T12:26:24.026Z</time>
      </trkpt>
      <trkpt lat="49.52608" lon="3.75543">
        <ele>106.23</ele>
        <time>2022-09-19T12:26:33.280Z</time>
      </trkpt>
      <trkpt lat="49.52619" lon="3.75541">
        <ele>106.23</ele>
        <time>2022-09-19T12:26:42.786Z</time>
      </trkpt>
      <trkpt lat="49.52631" lon="3.75544">
        <ele>106.23</ele>
        <time>2022-09-19T12:26:52.000Z</time>
      </trkpt>
      <trkpt lat="49.52643" lon="3.75543">
        <ele>104.63</ele>
        <time>2022-09-19T12:27:01.008Z</time>
      </trkpt>
      <trkpt lat="49.52656" lon="3.75541">
        <ele>104.63</ele>
        <time>2022-09-19T12:27:10.405Z</time>
      </trkpt>
      <trkpt lat="49.52659" lon="3.75526">
        <ele>104.63</ele>
        <time>2022-09-19T12:27:19.448Z</time>
      </trkpt>
      <trkpt lat="49.52661" lon="3.75516">
        <ele>104.63</ele>
        <time>2022-09-19T12:27:29.000Z</time>
      </trkpt>
      <trkpt lat="49.52661" lon="3.75518">
        <ele>104.63</ele>
        <time>2022-09-19T12:27:49.000Z</time>
      </trkpt>
      <trkpt lat="49.52661" lon="3.7552">
        <ele>104.53</ele>
        <time>2022-09-19T12:27:59.000Z</time>
      </trkpt>
      <trkpt lat="49.52663" lon="3.75521">
        <ele>104.63</ele>
        <time>2022-09-19T12:28:41.626Z</time>
      </trkpt>
      <trkpt lat="49.52667" lon="3.75516">
        <ele>104.53</ele>
        <time>2022-09-19T12:28:51.999Z</time>
      </trkpt>
      <trkpt lat="49.52664" lon="3.75497">
        <ele>104.53</ele>
        <time>2022-09-19T12:29:01.529Z</time>
      </trkpt>
      <trkpt lat="49.52663" lon="3.75475">
        <ele>104.53</ele>
        <time>2022-09-19T12:29:10.867Z</time>
      </trkpt>
      <trkpt lat="49.52663" lon="3.75454">
        <ele>104.53</ele>
        <time>2022-09-19T12:29:19.999Z</time>
      </trkpt>
      <trkpt lat="49.52673" lon="3.75439">
        <ele>104.53</ele>
        <time>2022-09-19T12:29:29.286Z</time>
      </trkpt>
      <trkpt lat="49.52682" lon="3.75429">
        <ele>104.53</ele>
        <time>2022-09-19T12:29:38.795Z</time>
      </trkpt>
      <trkpt lat="49.5269" lon="3.75422">
        <ele>104.53</ele>
        <time>2022-09-19T12:29:48.999Z</time>
      </trkpt>
      <trkpt lat="49.52704" lon="3.75422">
        <ele>104.53</ele>
        <time>2022-09-19T12:29:58.369Z</time>
      </trkpt>
      <trkpt lat="49.52716" lon="3.75422">
        <ele>104.53</ele>
        <time>2022-09-19T12:30:07.944Z</time>
      </trkpt>
      <trkpt lat="49.52726" lon="3.75417">
        <ele>119.15</ele>
        <time>2022-09-19T12:30:17.072Z</time>
      </trkpt>
      <trkpt lat="49.52736" lon="3.75411">
        <ele>102.93</ele>
        <time>2022-09-19T12:30:26.904Z</time>
      </trkpt>
      <trkpt lat="49.52748" lon="3.75405">
        <ele>102.93</ele>
        <time>2022-09-19T12:30:36.690Z</time>
      </trkpt>
      <trkpt lat="49.52758" lon="3.75398">
        <ele>102.93</ele>
        <time>2022-09-19T12:30:45.999Z</time>
      </trkpt>
      <trkpt lat="49.52767" lon="3.75387">
        <ele>102.93</ele>
        <time>2022-09-19T12:30:55.999Z</time>
      </trkpt>
      <trkpt lat="49.52777" lon="3.75377">
        <ele>102.93</ele>
        <time>2022-09-19T12:31:05.548Z</time>
      </trkpt>
      <trkpt lat="49.52785" lon="3.75372">
        <ele>102.93</ele>
        <time>2022-09-19T12:31:14.999Z</time>
      </trkpt>
      <trkpt lat="49.52794" lon="3.75365">
        <ele>102.93</ele>
        <time>2022-09-19T12:31:25.051Z</time>
      </trkpt>
      <trkpt lat="49.52805" lon="3.7536">
        <ele>102.93</ele>
        <time>2022-09-19T12:31:35.999Z</time>
      </trkpt>
      <trkpt lat="49.52817" lon="3.75352">
        <ele>102.93</ele>
        <time>2022-09-19T12:31:45.668Z</time>
      </trkpt>
      <trkpt lat="49.52828" lon="3.75346">
        <ele>102.93</ele>
        <time>2022-09-19T12:31:54.931Z</time>
      </trkpt>
      <trkpt lat="49.5284" lon="3.75341">
        <ele>102.93</ele>
        <time>2022-09-19T12:32:04.244Z</time>
      </trkpt>
      <trkpt lat="49.5285" lon="3.75335">
        <ele>126.96</ele>
        <time>2022-09-19T12:32:13.885Z</time>
      </trkpt>
      <trkpt lat="49.52862" lon="3.75329">
        <ele>127.62</ele>
        <time>2022-09-19T12:32:22.965Z</time>
      </trkpt>
      <trkpt lat="49.52872" lon="3.75323">
        <ele>128.28</ele>
        <time>2022-09-19T12:32:32.509Z</time>
      </trkpt>
      <trkpt lat="49.52882" lon="3.75317">
        <ele>128.72</ele>
        <time>2022-09-19T12:32:41.930Z</time>
      </trkpt>
      <trkpt lat="49.52893" lon="3.75316">
        <ele>128.67</ele>
        <time>2022-09-19T12:32:51.427Z</time>
      </trkpt>
      <trkpt lat="49.52904" lon="3.75313">
        <ele>128.51</ele>
        <time>2022-09-19T12:33:00.473Z</time>
      </trkpt>
      <trkpt lat="49.52914" lon="3.75309">
        <ele>129.12</ele>
        <time>2022-09-19T12:33:09.625Z</time>
      </trkpt>
      <trkpt lat="49.52923" lon="3.75305">
        <ele>129.64</ele>
        <time>2022-09-19T12:33:18.999Z</time>
      </trkpt>
      <trkpt lat="49.52934" lon="3.75303">
        <ele>103.33</ele>
        <time>2022-09-19T12:33:29.046Z</time>
      </trkpt>
      <trkpt lat="49.52946" lon="3.753">
        <ele>106.13</ele>
        <time>2022-09-19T12:33:38.999Z</time>
      </trkpt>
      <trkpt lat="49.52957" lon="3.75293">
        <ele>101.53</ele>
        <time>2022-09-19T12:33:48.087Z</time>
      </trkpt>
      <trkpt lat="49.52966" lon="3.75291">
        <ele>102.93</ele>
        <time>2022-09-19T12:33:57.999Z</time>
      </trkpt>
      <trkpt lat="49.52977" lon="3.75281">
        <ele>102.63</ele>
        <time>2022-09-19T12:34:07.999Z</time>
      </trkpt>
      <trkpt lat="49.52983" lon="3.75265">
        <ele>106.11</ele>
        <time>2022-09-19T12:34:17.266Z</time>
      </trkpt>
      <trkpt lat="49.52978" lon="3.75253">
        <ele>106.13</ele>
        <time>2022-09-19T12:34:26.551Z</time>
      </trkpt>
      <trkpt lat="49.52972" lon="3.75241">
        <ele>102.63</ele>
        <time>2022-09-19T12:34:35.987Z</time>
      </trkpt>
      <trkpt lat="49.52966" lon="3.75232">
        <ele>102.63</ele>
        <time>2022-09-19T12:34:45.065Z</time>
      </trkpt>
      <trkpt lat="49.52959" lon="3.75225">
        <ele>102.63</ele>
        <time>2022-09-19T12:34:54.999Z</time>
      </trkpt>
      <trkpt lat="49.52947" lon="3.75222">
        <ele>102.63</ele>
        <time>2022-09-19T12:35:04.490Z</time>
      </trkpt>
      <trkpt lat="49.52937" lon="3.7522">
        <ele>102.63</ele>
        <time>2022-09-19T12:35:13.585Z</time>
      </trkpt>
      <trkpt lat="49.52928" lon="3.75216">
        <ele>102.63</ele>
        <time>2022-09-19T12:35:22.642Z</time>
      </trkpt>
      <trkpt lat="49.5292" lon="3.75208">
        <ele>102.63</ele>
        <time>2022-09-19T12:35:31.999Z</time>
      </trkpt>
      <trkpt lat="49.52908" lon="3.75191">
        <ele>102.63</ele>
        <time>2022-09-19T12:35:41.908Z</time>
      </trkpt>
      <trkpt lat="49.52897" lon="3.75178">
        <ele>102.63</ele>
        <time>2022-09-19T12:35:51.999Z</time>
      </trkpt>
      <trkpt lat="49.52888" lon="3.75167">
        <ele>102.63</ele>
        <time>2022-09-19T12:36:01.872Z</time>
      </trkpt>
      <trkpt lat="49.52882" lon="3.75151">
        <ele>136.51</ele>
        <time>2022-09-19T12:36:11.350Z</time>
      </trkpt>
      <trkpt lat="49.52876" lon="3.75136">
        <ele>136.63</ele>
        <time>2022-09-19T12:36:20.383Z</time>
      </trkpt>
      <trkpt lat="49.52872" lon="3.75121">
        <ele>135.87</ele>
        <time>2022-09-19T12:36:29.792Z</time>
      </trkpt>
      <trkpt lat="49.52867" lon="3.75116">
        <ele>136.2</ele>
        <time>2022-09-19T12:36:38.999Z</time>
      </trkpt>
      <trkpt lat="49.5286" lon="3.75104">
        <ele>136.86</ele>
        <time>2022-09-19T12:36:48.367Z</time>
      </trkpt>
      <trkpt lat="49.52856" lon="3.75089">
        <ele>137.89</ele>
        <time>2022-09-19T12:36:57.566Z</time>
      </trkpt>
      <trkpt lat="49.52849" lon="3.7508">
        <ele>139.15</ele>
        <time>2022-09-19T12:37:06.628Z</time>
      </trkpt>
      <trkpt lat="49.52839" lon="3.75065">
        <ele>140.46</ele>
        <time>2022-09-19T12:37:15.886Z</time>
      </trkpt>
      <trkpt lat="49.52832" lon="3.75058">
        <ele>140.82</ele>
        <time>2022-09-19T12:37:24.894Z</time>
      </trkpt>
      <trkpt lat="49.52825" lon="3.75046">
        <ele>141.02</ele>
        <time>2022-09-19T12:37:34.443Z</time>
      </trkpt>
      <trkpt lat="49.5282" lon="3.75026">
        <ele>141.19</ele>
        <time>2022-09-19T12:37:43.999Z</time>
      </trkpt>
      <trkpt lat="49.52815" lon="3.75015">
        <ele>141.2</ele>
        <time>2022-09-19T12:37:53.699Z</time>
      </trkpt>
      <trkpt lat="49.52807" lon="3.75013">
        <ele>139.92</ele>
        <time>2022-09-19T12:38:02.755Z</time>
      </trkpt>
      <trkpt lat="49.52802" lon="3.75002">
        <ele>137.52</ele>
        <time>2022-09-19T12:38:11.921Z</time>
      </trkpt>
      <trkpt lat="49.52801" lon="3.74989">
        <ele>136.29</ele>
        <time>2022-09-19T12:38:20.999Z</time>
      </trkpt>
      <trkpt lat="49.52798" lon="3.74973">
        <ele>135.14</ele>
        <time>2022-09-19T12:38:30.836Z</time>
      </trkpt>
      <trkpt lat="49.5279" lon="3.74961">
        <ele>134.8</ele>
        <time>2022-09-19T12:38:39.961Z</time>
      </trkpt>
      <trkpt lat="49.52781" lon="3.74943">
        <ele>135.31</ele>
        <time>2022-09-19T12:38:48.999Z</time>
      </trkpt>
      <trkpt lat="49.52773" lon="3.74929">
        <ele>135.49</ele>
        <time>2022-09-19T12:38:58.484Z</time>
      </trkpt>
      <trkpt lat="49.52765" lon="3.74918">
        <ele>135.91</ele>
        <time>2022-09-19T12:39:07.999Z</time>
      </trkpt>
      <trkpt lat="49.52754" lon="3.74909">
        <ele>136.3</ele>
        <time>2022-09-19T12:39:17.478Z</time>
      </trkpt>
      <trkpt lat="49.52741" lon="3.74908">
        <ele>136.69</ele>
        <time>2022-09-19T12:39:26.833Z</time>
      </trkpt>
      <trkpt lat="49.52732" lon="3.7491">
        <ele>137.16</ele>
        <time>2022-09-19T12:39:36.296Z</time>
      </trkpt>
      <trkpt lat="49.52721" lon="3.74916">
        <ele>138.48</ele>
        <time>2022-09-19T12:39:45.999Z</time>
      </trkpt>
      <trkpt lat="49.52715" lon="3.7492">
        <ele>139.37</ele>
        <time>2022-09-19T12:39:55.458Z</time>
      </trkpt>
      <trkpt lat="49.52703" lon="3.74926">
        <ele>140.04</ele>
        <time>2022-09-19T12:40:04.683Z</time>
      </trkpt>
      <trkpt lat="49.52693" lon="3.74931">
        <ele>140.8</ele>
        <time>2022-09-19T12:40:13.999Z</time>
      </trkpt>
      <trkpt lat="49.52688" lon="3.74941">
        <ele>141.28</ele>
        <time>2022-09-19T12:40:23.181Z</time>
      </trkpt>
      <trkpt lat="49.52684" lon="3.74949">
        <ele>141.57</ele>
        <time>2022-09-19T12:40:32.599Z</time>
      </trkpt>
      <trkpt lat="49.52677" lon="3.7495">
        <ele>141.36</ele>
        <time>2022-09-19T12:40:41.713Z</time>
      </trkpt>
      <trkpt lat="49.52666" lon="3.74953">
        <ele>140.74</ele>
        <time>2022-09-19T12:40:50.999Z</time>
      </trkpt>
      <trkpt lat="49.52659" lon="3.74965">
        <ele>140.82</ele>
        <time>2022-09-19T12:41:00.877Z</time>
      </trkpt>
      <trkpt lat="49.52654" lon="3.74977">
        <ele>140.8</ele>
        <time>2022-09-19T12:41:09.999Z</time>
      </trkpt>
      <trkpt lat="49.52653" lon="3.7499">
        <ele>141.01</ele>
        <time>2022-09-19T12:41:19.999Z</time>
      </trkpt>
      <trkpt lat="49.52654" lon="3.75003">
        <ele>141.46</ele>
        <time>2022-09-19T12:41:29.999Z</time>
      </trkpt>
      <trkpt lat="49.52652" lon="3.75004">
        <ele>141.62</ele>
        <time>2022-09-19T12:41:39.999Z</time>
      </trkpt>
      <trkpt lat="49.5265" lon="3.75007">
        <ele>141.78</ele>
        <time>2022-09-19T12:41:49.999Z</time>
      </trkpt>
      <trkpt lat="49.52651" lon="3.75008">
        <ele>141.89</ele>
        <time>2022-09-19T12:41:59.999Z</time>
      </trkpt>
      <trkpt lat="49.5265" lon="3.75008">
        <ele>141.98</ele>
        <time>2022-09-19T12:42:09.999Z</time>
      </trkpt>
      <trkpt lat="49.52649" lon="3.7501">
        <ele>141.7</ele>
        <time>2022-09-19T12:42:45.999Z</time>
      </trkpt>
      <trkpt lat="49.52648" lon="3.75011">
        <ele>142.02</ele>
        <time>2022-09-19T12:42:55.999Z</time>
      </trkpt>
      <trkpt lat="49.52648" lon="3.75012">
        <ele>144.5</ele>
        <time>2022-09-19T12:43:52.999Z</time>
      </trkpt>
      <trkpt lat="49.52646" lon="3.75027">
        <ele>145.64</ele>
        <time>2022-09-19T12:44:02.435Z</time>
      </trkpt>
      <trkpt lat="49.52645" lon="3.75042">
        <ele>146.86</ele>
        <time>2022-09-19T12:44:11.702Z</time>
      </trkpt>
      <trkpt lat="49.52644" lon="3.75059">
        <ele>148.11</ele>
        <time>2022-09-19T12:44:20.999Z</time>
      </trkpt>
      <trkpt lat="49.52644" lon="3.75064">
        <ele>149.28</ele>
        <time>2022-09-19T12:44:30.999Z</time>
      </trkpt>
      <trkpt lat="49.52646" lon="3.75068">
        <ele>150.73</ele>
        <time>2022-09-19T12:44:40.999Z</time>
      </trkpt>
      <trkpt lat="49.52642" lon="3.75068">
        <ele>151.65</ele>
        <time>2022-09-19T12:44:50.999Z</time>
      </trkpt>
      <trkpt lat="49.5264" lon="3.75069">
        <ele>152.56</ele>
        <time>2022-09-19T12:45:00.999Z</time>
      </trkpt>
      <trkpt lat="49.52646" lon="3.75076">
        <ele>154.24</ele>
        <time>2022-09-19T12:45:10.144Z</time>
      </trkpt>
      <trkpt lat="49.52654" lon="3.75089">
        <ele>155.73</ele>
        <time>2022-09-19T12:45:19.696Z</time>
      </trkpt>
      <trkpt lat="49.52658" lon="3.75101">
        <ele>156.68</ele>
        <time>2022-09-19T12:45:29.719Z</time>
      </trkpt>
      <trkpt lat="49.52656" lon="3.75121">
        <ele>157.37</ele>
        <time>2022-09-19T12:45:39.152Z</time>
      </trkpt>
      <trkpt lat="49.52649" lon="3.75143">
        <ele>158.5</ele>
        <time>2022-09-19T12:45:48.460Z</time>
      </trkpt>
      <trkpt lat="49.52652" lon="3.7516">
        <ele>160.03</ele>
        <time>2022-09-19T12:45:57.666Z</time>
      </trkpt>
      <trkpt lat="49.52648" lon="3.75179">
        <ele>161.62</ele>
        <time>2022-09-19T12:46:06.909Z</time>
      </trkpt>
      <trkpt lat="49.52642" lon="3.75195">
        <ele>162.4</ele>
        <time>2022-09-19T12:46:16.876Z</time>
      </trkpt>
      <trkpt lat="49.52635" lon="3.75196">
        <ele>162.39</ele>
        <time>2022-09-19T12:46:25.937Z</time>
      </trkpt>
      <trkpt lat="49.52626" lon="3.75195">
        <ele>161.63</ele>
        <time>2022-09-19T12:46:35.429Z</time>
      </trkpt>
      <trkpt lat="49.52616" lon="3.75199">
        <ele>160.7</ele>
        <time>2022-09-19T12:46:44.684Z</time>
      </trkpt>
      <trkpt lat="49.52609" lon="3.75206">
        <ele>159.5</ele>
        <time>2022-09-19T12:46:53.699Z</time>
      </trkpt>
      <trkpt lat="49.52602" lon="3.75207">
        <ele>156.64</ele>
        <time>2022-09-19T12:47:03.335Z</time>
      </trkpt>
      <trkpt lat="49.52596" lon="3.75182">
        <ele>153.59</ele>
        <time>2022-09-19T12:47:12.482Z</time>
      </trkpt>
      <trkpt lat="49.52595" lon="3.75173">
        <ele>151.29</ele>
        <time>2022-09-19T12:47:21.615Z</time>
      </trkpt>
      <trkpt lat="49.5259" lon="3.75163">
        <ele>148.88</ele>
        <time>2022-09-19T12:47:30.899Z</time>
      </trkpt>
      <trkpt lat="49.52585" lon="3.75154">
        <ele>146.79</ele>
        <time>2022-09-19T12:47:39.999Z</time>
      </trkpt>
      <trkpt lat="49.5258" lon="3.75144">
        <ele>146.26</ele>
        <time>2022-09-19T12:47:49.999Z</time>
      </trkpt>
      <trkpt lat="49.52575" lon="3.75132">
        <ele>145.96</ele>
        <time>2022-09-19T12:47:59.596Z</time>
      </trkpt>
      <trkpt lat="49.52573" lon="3.7512">
        <ele>145.31</ele>
        <time>2022-09-19T12:48:08.922Z</time>
      </trkpt>
      <trkpt lat="49.5257" lon="3.7511">
        <ele>145.67</ele>
        <time>2022-09-19T12:48:17.999Z</time>
      </trkpt>
      <trkpt lat="49.52567" lon="3.75097">
        <ele>145.95</ele>
        <time>2022-09-19T12:48:27.820Z</time>
      </trkpt>
      <trkpt lat="49.52564" lon="3.75091">
        <ele>146.27</ele>
        <time>2022-09-19T12:48:37.915Z</time>
      </trkpt>
      <trkpt lat="49.52563" lon="3.75085">
        <ele>146.5</ele>
        <time>2022-09-19T12:48:47.576Z</time>
      </trkpt>
      <trkpt lat="49.5256" lon="3.75078">
        <ele>146.44</ele>
        <time>2022-09-19T12:48:57.101Z</time>
      </trkpt>
      <trkpt lat="49.52555" lon="3.75069">
        <ele>146.98</ele>
        <time>2022-09-19T12:49:06.716Z</time>
      </trkpt>
      <trkpt lat="49.52551" lon="3.75056">
        <ele>148.36</ele>
        <time>2022-09-19T12:49:15.722Z</time>
      </trkpt>
      <trkpt lat="49.52551" lon="3.75039">
        <ele>150.07</ele>
        <time>2022-09-19T12:49:25.519Z</time>
      </trkpt>
      <trkpt lat="49.52551" lon="3.75031">
        <ele>150.29</ele>
        <time>2022-09-19T12:49:34.562Z</time>
      </trkpt>
      <trkpt lat="49.52547" lon="3.75022">
        <ele>150.61</ele>
        <time>2022-09-19T12:49:43.999Z</time>
      </trkpt>
      <trkpt lat="49.52543" lon="3.7502">
        <ele>151.33</ele>
        <time>2022-09-19T12:49:53.673Z</time>
      </trkpt>
      <trkpt lat="49.52537" lon="3.75016">
        <ele>151.79</ele>
        <time>2022-09-19T12:50:02.973Z</time>
      </trkpt>
      <trkpt lat="49.52531" lon="3.75009">
        <ele>152.7</ele>
        <time>2022-09-19T12:50:11.999Z</time>
      </trkpt>
      <trkpt lat="49.52526" lon="3.74998">
        <ele>154.54</ele>
        <time>2022-09-19T12:50:21.417Z</time>
      </trkpt>
      <trkpt lat="49.52522" lon="3.74988">
        <ele>156.32</ele>
        <time>2022-09-19T12:50:30.918Z</time>
      </trkpt>
      <trkpt lat="49.52521" lon="3.74976">
        <ele>158.42</ele>
        <time>2022-09-19T12:50:39.999Z</time>
      </trkpt>
      <trkpt lat="49.52521" lon="3.74962">
        <ele>160.42</ele>
        <time>2022-09-19T12:50:49.519Z</time>
      </trkpt>
      <trkpt lat="49.52523" lon="3.74948">
        <ele>162.31</ele>
        <time>2022-09-19T12:50:58.524Z</time>
      </trkpt>
      <trkpt lat="49.52528" lon="3.74932">
        <ele>165.76</ele>
        <time>2022-09-19T12:51:07.794Z</time>
      </trkpt>
      <trkpt lat="49.52533" lon="3.74919">
        <ele>170.16</ele>
        <time>2022-09-19T12:51:17.621Z</time>
      </trkpt>
      <trkpt lat="49.52546" lon="3.74908">
        <ele>174.21</ele>
        <time>2022-09-19T12:51:26.999Z</time>
      </trkpt>
      <trkpt lat="49.52552" lon="3.74895">
        <ele>177.99</ele>
        <time>2022-09-19T12:51:36.139Z</time>
      </trkpt>
      <trkpt lat="49.52555" lon="3.74879">
        <ele>180.93</ele>
        <time>2022-09-19T12:51:45.863Z</time>
      </trkpt>
      <trkpt lat="49.52553" lon="3.74864">
        <ele>183.11</ele>
        <time>2022-09-19T12:51:54.999Z</time>
      </trkpt>
      <trkpt lat="49.52547" lon="3.74852">
        <ele>183.93</ele>
        <time>2022-09-19T12:52:04.701Z</time>
      </trkpt>
      <trkpt lat="49.52545" lon="3.74838">
        <ele>185.04</ele>
        <time>2022-09-19T12:52:13.894Z</time>
      </trkpt>
      <trkpt lat="49.52541" lon="3.74822">
        <ele>185.93</ele>
        <time>2022-09-19T12:52:23.272Z</time>
      </trkpt>
      <trkpt lat="49.52537" lon="3.74812">
        <ele>185.95</ele>
        <time>2022-09-19T12:52:32.716Z</time>
      </trkpt>
      <trkpt lat="49.52537" lon="3.748">
        <ele>186.22</ele>
        <time>2022-09-19T12:52:41.759Z</time>
      </trkpt>
      <trkpt lat="49.52542" lon="3.74786">
        <ele>187.2</ele>
        <time>2022-09-19T12:52:50.801Z</time>
      </trkpt>
      <trkpt lat="49.52551" lon="3.74771">
        <ele>190.05</ele>
        <time>2022-09-19T12:53:00.044Z</time>
      </trkpt>
      <trkpt lat="49.52564" lon="3.74757">
        <ele>192.52</ele>
        <time>2022-09-19T12:53:09.800Z</time>
      </trkpt>
      <trkpt lat="49.52574" lon="3.74744">
        <ele>193.15</ele>
        <time>2022-09-19T12:53:18.955Z</time>
      </trkpt>
      <trkpt lat="49.52594" lon="3.74732">
        <ele>194.76</ele>
        <time>2022-09-19T12:53:28.135Z</time>
      </trkpt>
      <trkpt lat="49.52599" lon="3.74723">
        <ele>196.54</ele>
        <time>2022-09-19T12:53:37.841Z</time>
      </trkpt>
      <trkpt lat="49.526" lon="3.74709">
        <ele>197.48</ele>
        <time>2022-09-19T12:53:47.793Z</time>
      </trkpt>
      <trkpt lat="49.52592" lon="3.74694">
        <ele>198.35</ele>
        <time>2022-09-19T12:53:57.936Z</time>
      </trkpt>
      <trkpt lat="49.52585" lon="3.74681">
        <ele>197.8</ele>
        <time>2022-09-19T12:54:07.483Z</time>
      </trkpt>
      <trkpt lat="49.52582" lon="3.74666">
        <ele>197.16</ele>
        <time>2022-09-19T12:54:16.959Z</time>
      </trkpt>
      <trkpt lat="49.52576" lon="3.74653">
        <ele>196.69</ele>
        <time>2022-09-19T12:54:26.297Z</time>
      </trkpt>
      <trkpt lat="49.52576" lon="3.74643">
        <ele>196.1</ele>
        <time>2022-09-19T12:54:35.501Z</time>
      </trkpt>
      <trkpt lat="49.52588" lon="3.74627">
        <ele>195.55</ele>
        <time>2022-09-19T12:54:44.555Z</time>
      </trkpt>
      <trkpt lat="49.52612" lon="3.74611">
        <ele>194.69</ele>
        <time>2022-09-19T12:54:53.618Z</time>
      </trkpt>
      <trkpt lat="49.52617" lon="3.74595">
        <ele>193.9</ele>
        <time>2022-09-19T12:55:02.999Z</time>
      </trkpt>
      <trkpt lat="49.52614" lon="3.7459">
        <ele>193.45</ele>
        <time>2022-09-19T12:55:12.840Z</time>
      </trkpt>
      <trkpt lat="49.52611" lon="3.74588">
        <ele>192.86</ele>
        <time>2022-09-19T12:55:21.999Z</time>
      </trkpt>
      <trkpt lat="49.5261" lon="3.74589">
        <ele>192.78</ele>
        <time>2022-09-19T12:55:31.999Z</time>
      </trkpt>
      <trkpt lat="49.52608" lon="3.74588">
        <ele>193.63</ele>
        <time>2022-09-19T12:55:41.999Z</time>
      </trkpt>
      <trkpt lat="49.52605" lon="3.74586">
        <ele>194.9</ele>
        <time>2022-09-19T12:55:51.999Z</time>
      </trkpt>
      <trkpt lat="49.52606" lon="3.74585">
        <ele>196</ele>
        <time>2022-09-19T12:56:01.999Z</time>
      </trkpt>
      <trkpt lat="49.52605" lon="3.74579">
        <ele>196.35</ele>
        <time>2022-09-19T12:56:12.999Z</time>
      </trkpt>
      <trkpt lat="49.52607" lon="3.74573">
        <ele>196.6</ele>
        <time>2022-09-19T12:56:22.999Z</time>
      </trkpt>
      <trkpt lat="49.52605" lon="3.74573">
        <ele>189.7</ele>
        <time>2022-09-19T12:59:29.999Z</time>
      </trkpt>
      <trkpt lat="49.52602" lon="3.74573">
        <ele>190.29</ele>
        <time>2022-09-19T12:59:39.999Z</time>
      </trkpt>
      <trkpt lat="49.52602" lon="3.74571">
        <ele>191.5</ele>
        <time>2022-09-19T13:00:36.999Z</time>
      </trkpt>
      <trkpt lat="49.52601" lon="3.74563">
        <ele>192.11</ele>
        <time>2022-09-19T13:00:46.999Z</time>
      </trkpt>
      <trkpt lat="49.52607" lon="3.74557">
        <ele>192.18</ele>
        <time>2022-09-19T13:00:56.999Z</time>
      </trkpt>
      <trkpt lat="49.52614" lon="3.74558">
        <ele>191.45</ele>
        <time>2022-09-19T13:01:06.820Z</time>
      </trkpt>
      <trkpt lat="49.52614" lon="3.74551">
        <ele>190.86</ele>
        <time>2022-09-19T13:01:16.083Z</time>
      </trkpt>
      <trkpt lat="49.52619" lon="3.74544">
        <ele>190.15</ele>
        <time>2022-09-19T13:01:25.777Z</time>
      </trkpt>
      <trkpt lat="49.52628" lon="3.74538">
        <ele>188.87</ele>
        <time>2022-09-19T13:01:34.999Z</time>
      </trkpt>
      <trkpt lat="49.52643" lon="3.74522">
        <ele>189.26</ele>
        <time>2022-09-19T13:01:44.398Z</time>
      </trkpt>
      <trkpt lat="49.52652" lon="3.74509">
        <ele>189.73</ele>
        <time>2022-09-19T13:01:53.763Z</time>
      </trkpt>
      <trkpt lat="49.52659" lon="3.745">
        <ele>190.13</ele>
        <time>2022-09-19T13:02:02.999Z</time>
      </trkpt>
      <trkpt lat="49.52665" lon="3.7449">
        <ele>190.72</ele>
        <time>2022-09-19T13:02:12.553Z</time>
      </trkpt>
      <trkpt lat="49.5267" lon="3.7448">
        <ele>191.08</ele>
        <time>2022-09-19T13:02:21.579Z</time>
      </trkpt>
      <trkpt lat="49.52678" lon="3.74467">
        <ele>191.64</ele>
        <time>2022-09-19T13:02:30.999Z</time>
      </trkpt>
      <trkpt lat="49.52684" lon="3.74454">
        <ele>192.59</ele>
        <time>2022-09-19T13:02:40.682Z</time>
      </trkpt>
      <trkpt lat="49.52689" lon="3.74446">
        <ele>193.42</ele>
        <time>2022-09-19T13:02:49.999Z</time>
      </trkpt>
      <trkpt lat="49.52694" lon="3.74441">
        <ele>194.12</ele>
        <time>2022-09-19T13:02:59.478Z</time>
      </trkpt>
      <trkpt lat="49.52704" lon="3.74426">
        <ele>194.44</ele>
        <time>2022-09-19T13:03:08.693Z</time>
      </trkpt>
      <trkpt lat="49.52713" lon="3.74415">
        <ele>194.44</ele>
        <time>2022-09-19T13:03:17.918Z</time>
      </trkpt>
      <trkpt lat="49.52721" lon="3.74402">
        <ele>194.08</ele>
        <time>2022-09-19T13:03:27.854Z</time>
      </trkpt>
      <trkpt lat="49.5273" lon="3.7439">
        <ele>194.26</ele>
        <time>2022-09-19T13:03:36.899Z</time>
      </trkpt>
      <trkpt lat="49.52738" lon="3.74377">
        <ele>195.29</ele>
        <time>2022-09-19T13:03:45.999Z</time>
      </trkpt>
      <trkpt lat="49.52745" lon="3.74365">
        <ele>196.45</ele>
        <time>2022-09-19T13:03:55.885Z</time>
      </trkpt>
      <trkpt lat="49.52752" lon="3.74352">
        <ele>197.24</ele>
        <time>2022-09-19T13:04:05.397Z</time>
      </trkpt>
      <trkpt lat="49.52761" lon="3.74338">
        <ele>198.01</ele>
        <time>2022-09-19T13:04:14.621Z</time>
      </trkpt>
      <trkpt lat="49.52768" lon="3.74326">
        <ele>198.94</ele>
        <time>2022-09-19T13:04:23.936Z</time>
      </trkpt>
      <trkpt lat="49.52779" lon="3.74315">
        <ele>199.96</ele>
        <time>2022-09-19T13:04:33.720Z</time>
      </trkpt>
      <trkpt lat="49.5279" lon="3.74304">
        <ele>200.73</ele>
        <time>2022-09-19T13:04:43.133Z</time>
      </trkpt>
      <trkpt lat="49.52798" lon="3.74291">
        <ele>201.13</ele>
        <time>2022-09-19T13:04:52.432Z</time>
      </trkpt>
      <trkpt lat="49.52804" lon="3.74279">
        <ele>201.39</ele>
        <time>2022-09-19T13:05:01.893Z</time>
      </trkpt>
      <trkpt lat="49.52806" lon="3.74268">
        <ele>201.52</ele>
        <time>2022-09-19T13:05:10.999Z</time>
      </trkpt>
      <trkpt lat="49.52809" lon="3.7426">
        <ele>201.43</ele>
        <time>2022-09-19T13:05:20.353Z</time>
      </trkpt>
      <trkpt lat="49.52818" lon="3.74258">
        <ele>201.34</ele>
        <time>2022-09-19T13:05:29.675Z</time>
      </trkpt>
      <trkpt lat="49.52827" lon="3.74251">
        <ele>201.5</ele>
        <time>2022-09-19T13:05:38.701Z</time>
      </trkpt>
      <trkpt lat="49.52836" lon="3.74242">
        <ele>202.07</ele>
        <time>2022-09-19T13:05:48.999Z</time>
      </trkpt>
      <trkpt lat="49.52846" lon="3.74243">
        <ele>202.3</ele>
        <time>2022-09-19T13:05:58.459Z</time>
      </trkpt>
      <trkpt lat="49.52856" lon="3.74248">
        <ele>202.89</ele>
        <time>2022-09-19T13:06:07.735Z</time>
      </trkpt>
      <trkpt lat="49.52863" lon="3.74249">
        <ele>202.94</ele>
        <time>2022-09-19T13:06:17.999Z</time>
      </trkpt>
      <trkpt lat="49.52867" lon="3.74251">
        <ele>201.99</ele>
        <time>2022-09-19T13:06:27.719Z</time>
      </trkpt>
      <trkpt lat="49.52869" lon="3.74254">
        <ele>200.77</ele>
        <time>2022-09-19T13:06:36.957Z</time>
      </trkpt>
      <trkpt lat="49.52879" lon="3.74255">
        <ele>197.82</ele>
        <time>2022-09-19T13:06:46.681Z</time>
      </trkpt>
      <trkpt lat="49.52885" lon="3.74256">
        <ele>194.69</ele>
        <time>2022-09-19T13:06:56.335Z</time>
      </trkpt>
      <trkpt lat="49.52879" lon="3.74262">
        <ele>191.71</ele>
        <time>2022-09-19T13:07:05.999Z</time>
      </trkpt>
      <trkpt lat="49.52877" lon="3.74262">
        <ele>190.24</ele>
        <time>2022-09-19T13:07:15.477Z</time>
      </trkpt>
      <trkpt lat="49.52882" lon="3.74258">
        <ele>187.67</ele>
        <time>2022-09-19T13:07:24.999Z</time>
      </trkpt>
      <trkpt lat="49.52884" lon="3.74257">
        <ele>185.58</ele>
        <time>2022-09-19T13:07:34.218Z</time>
      </trkpt>
      <trkpt lat="49.52891" lon="3.74261">
        <ele>182.93</ele>
        <time>2022-09-19T13:07:44.999Z</time>
      </trkpt>
      <trkpt lat="49.52892" lon="3.74261">
        <ele>180.49</ele>
        <time>2022-09-19T13:08:03.999Z</time>
      </trkpt>
      <trkpt lat="49.52897" lon="3.74261">
        <ele>177.24</ele>
        <time>2022-09-19T13:08:33.999Z</time>
      </trkpt>
      <trkpt lat="49.52907" lon="3.74255">
        <ele>178.61</ele>
        <time>2022-09-19T13:08:43.919Z</time>
      </trkpt>
      <trkpt lat="49.52915" lon="3.74259">
        <ele>180.02</ele>
        <time>2022-09-19T13:08:52.999Z</time>
      </trkpt>
      <trkpt lat="49.52922" lon="3.74264">
        <ele>180.5</ele>
        <time>2022-09-19T13:09:02.999Z</time>
      </trkpt>
      <trkpt lat="49.52926" lon="3.74265">
        <ele>180.63</ele>
        <time>2022-09-19T13:09:12.896Z</time>
      </trkpt>
      <trkpt lat="49.52932" lon="3.7426">
        <ele>180.34</ele>
        <time>2022-09-19T13:09:22.540Z</time>
      </trkpt>
      <trkpt lat="49.52928" lon="3.74267">
        <ele>173.73</ele>
        <time>2022-09-19T13:09:31.562Z</time>
      </trkpt>
      <trkpt lat="49.52935" lon="3.74273">
        <ele>160.2</ele>
        <time>2022-09-19T13:09:40.941Z</time>
      </trkpt>
      <trkpt lat="49.5294" lon="3.7428">
        <ele>157.09</ele>
        <time>2022-09-19T13:09:49.999Z</time>
      </trkpt>
      <trkpt lat="49.52952" lon="3.74282">
        <ele>157.39</ele>
        <time>2022-09-19T13:09:59.395Z</time>
      </trkpt>
      <trkpt lat="49.52973" lon="3.74283">
        <ele>157.78</ele>
        <time>2022-09-19T13:10:08.973Z</time>
      </trkpt>
      <trkpt lat="49.52986" lon="3.74283">
        <ele>159.35</ele>
        <time>2022-09-19T13:10:18.523Z</time>
      </trkpt>
      <trkpt lat="49.52996" lon="3.74284">
        <ele>159.74</ele>
        <time>2022-09-19T13:10:27.593Z</time>
      </trkpt>
      <trkpt lat="49.53008" lon="3.74287">
        <ele>160.2</ele>
        <time>2022-09-19T13:10:36.999Z</time>
      </trkpt>
      <trkpt lat="49.53019" lon="3.7429">
        <ele>160.58</ele>
        <time>2022-09-19T13:10:46.517Z</time>
      </trkpt>
      <trkpt lat="49.53028" lon="3.74293">
        <ele>161.23</ele>
        <time>2022-09-19T13:10:55.742Z</time>
      </trkpt>
      <trkpt lat="49.53036" lon="3.74293">
        <ele>162</ele>
        <time>2022-09-19T13:11:04.793Z</time>
      </trkpt>
      <trkpt lat="49.53042" lon="3.74293">
        <ele>162.09</ele>
        <time>2022-09-19T13:11:14.316Z</time>
      </trkpt>
      <trkpt lat="49.5305" lon="3.74291">
        <ele>161.66</ele>
        <time>2022-09-19T13:11:23.678Z</time>
      </trkpt>
      <trkpt lat="49.53058" lon="3.7429">
        <ele>161.73</ele>
        <time>2022-09-19T13:11:32.999Z</time>
      </trkpt>
      <trkpt lat="49.53067" lon="3.74292">
        <ele>161.5</ele>
        <time>2022-09-19T13:11:42.280Z</time>
      </trkpt>
      <trkpt lat="49.53078" lon="3.74285">
        <ele>161.69</ele>
        <time>2022-09-19T13:11:51.536Z</time>
      </trkpt>
      <trkpt lat="49.53086" lon="3.74284">
        <ele>161.47</ele>
        <time>2022-09-19T13:12:00.674Z</time>
      </trkpt>
      <trkpt lat="49.53091" lon="3.74288">
        <ele>160.78</ele>
        <time>2022-09-19T13:12:09.999Z</time>
      </trkpt>
      <trkpt lat="49.53096" lon="3.74295">
        <ele>159.89</ele>
        <time>2022-09-19T13:12:19.053Z</time>
      </trkpt>
      <trkpt lat="49.53103" lon="3.74301">
        <ele>159.49</ele>
        <time>2022-09-19T13:12:28.277Z</time>
      </trkpt>
      <trkpt lat="49.53113" lon="3.74309">
        <ele>158.89</ele>
        <time>2022-09-19T13:12:37.883Z</time>
      </trkpt>
      <trkpt lat="49.53125" lon="3.74311">
        <ele>158.75</ele>
        <time>2022-09-19T13:12:47.235Z</time>
      </trkpt>
      <trkpt lat="49.53139" lon="3.74314">
        <ele>158.91</ele>
        <time>2022-09-19T13:12:56.441Z</time>
      </trkpt>
      <trkpt lat="49.53158" lon="3.74321">
        <ele>158.98</ele>
        <time>2022-09-19T13:13:05.681Z</time>
      </trkpt>
      <trkpt lat="49.5317" lon="3.74323">
        <ele>159.16</ele>
        <time>2022-09-19T13:13:14.833Z</time>
      </trkpt>
      <trkpt lat="49.53181" lon="3.74323">
        <ele>158.97</ele>
        <time>2022-09-19T13:13:24.878Z</time>
      </trkpt>
      <trkpt lat="49.53189" lon="3.74324">
        <ele>157.61</ele>
        <time>2022-09-19T13:13:33.999Z</time>
      </trkpt>
      <trkpt lat="49.53197" lon="3.74325">
        <ele>155.23</ele>
        <time>2022-09-19T13:13:43.820Z</time>
      </trkpt>
      <trkpt lat="49.53203" lon="3.74326">
        <ele>149.39</ele>
        <time>2022-09-19T13:13:52.999Z</time>
      </trkpt>
      <trkpt lat="49.53209" lon="3.74327">
        <ele>146.65</ele>
        <time>2022-09-19T13:14:02.673Z</time>
      </trkpt>
      <trkpt lat="49.53217" lon="3.74326">
        <ele>144.24</ele>
        <time>2022-09-19T13:14:12.672Z</time>
      </trkpt>
      <trkpt lat="49.53227" lon="3.74323">
        <ele>141.66</ele>
        <time>2022-09-19T13:14:21.999Z</time>
      </trkpt>
      <trkpt lat="49.5324" lon="3.74319">
        <ele>140.21</ele>
        <time>2022-09-19T13:14:31.136Z</time>
      </trkpt>
      <trkpt lat="49.53251" lon="3.74312">
        <ele>139.6</ele>
        <time>2022-09-19T13:14:40.681Z</time>
      </trkpt>
      <trkpt lat="49.53256" lon="3.74306">
        <ele>139.22</ele>
        <time>2022-09-19T13:14:49.819Z</time>
      </trkpt>
      <trkpt lat="49.53259" lon="3.74292">
        <ele>138.61</ele>
        <time>2022-09-19T13:14:59.239Z</time>
      </trkpt>
      <trkpt lat="49.53261" lon="3.74279">
        <ele>138.2</ele>
        <time>2022-09-19T13:15:09.999Z</time>
      </trkpt>
      <trkpt lat="49.53262" lon="3.7428">
        <ele>137.92</ele>
        <time>2022-09-19T13:15:19.999Z</time>
      </trkpt>
      <trkpt lat="49.5326" lon="3.74286">
        <ele>137.59</ele>
        <time>2022-09-19T13:15:29.999Z</time>
      </trkpt>
      <trkpt lat="49.5326" lon="3.74288">
        <ele>138.19</ele>
        <time>2022-09-19T13:15:44.999Z</time>
      </trkpt>
      <trkpt lat="49.5326" lon="3.74292">
        <ele>138.52</ele>
        <time>2022-09-19T13:15:54.999Z</time>
      </trkpt>
      <trkpt lat="49.53264" lon="3.74289">
        <ele>138.72</ele>
        <time>2022-09-19T13:16:04.999Z</time>
      </trkpt>
      <trkpt lat="49.53263" lon="3.7429">
        <ele>138.75</ele>
        <time>2022-09-19T13:16:14.999Z</time>
      </trkpt>
      <trkpt lat="49.53264" lon="3.7429">
        <ele>138.41</ele>
        <time>2022-09-19T13:16:27.999Z</time>
      </trkpt>
      <trkpt lat="49.53265" lon="3.74289">
        <ele>138.44</ele>
        <time>2022-09-19T13:16:37.999Z</time>
      </trkpt>
      <trkpt lat="49.53265" lon="3.74291">
        <ele>139.25</ele>
        <time>2022-09-19T13:16:47.999Z</time>
      </trkpt>
      <trkpt lat="49.53266" lon="3.74286">
        <ele>139.79</ele>
        <time>2022-09-19T13:16:58.461Z</time>
      </trkpt>
      <trkpt lat="49.53265" lon="3.74276">
        <ele>139.23</ele>
        <time>2022-09-19T13:17:07.575Z</time>
      </trkpt>
      <trkpt lat="49.53261" lon="3.74274">
        <ele>137.87</ele>
        <time>2022-09-19T13:17:16.683Z</time>
      </trkpt>
      <trkpt lat="49.53253" lon="3.74269">
        <ele>135.97</ele>
        <time>2022-09-19T13:17:26.615Z</time>
      </trkpt>
      <trkpt lat="49.53246" lon="3.74264">
        <ele>133.65</ele>
        <time>2022-09-19T13:17:36.082Z</time>
      </trkpt>
      <trkpt lat="49.53244" lon="3.74255">
        <ele>131.68</ele>
        <time>2022-09-19T13:17:45.441Z</time>
      </trkpt>
      <trkpt lat="49.53236" lon="3.74247">
        <ele>129.23</ele>
        <time>2022-09-19T13:17:54.794Z</time>
      </trkpt>
      <trkpt lat="49.53235" lon="3.74236">
        <ele>127.58</ele>
        <time>2022-09-19T13:18:04.460Z</time>
      </trkpt>
      <trkpt lat="49.53234" lon="3.74235">
        <ele>125.29</ele>
        <time>2022-09-19T13:18:13.740Z</time>
      </trkpt>
      <trkpt lat="49.53234" lon="3.74234">
        <ele>122.98</ele>
        <time>2022-09-19T13:18:24.009Z</time>
      </trkpt>
      <trkpt lat="49.53228" lon="3.74227">
        <ele>117.9</ele>
        <time>2022-09-19T13:18:33.054Z</time>
      </trkpt>
      <trkpt lat="49.53225" lon="3.74217">
        <ele>112.87</ele>
        <time>2022-09-19T13:18:42.700Z</time>
      </trkpt>
      <trkpt lat="49.53215" lon="3.74204">
        <ele>108.38</ele>
        <time>2022-09-19T13:18:51.925Z</time>
      </trkpt>
      <trkpt lat="49.53203" lon="3.74186">
        <ele>105.5</ele>
        <time>2022-09-19T13:19:01.000Z</time>
      </trkpt>
      <trkpt lat="49.53187" lon="3.74154">
        <ele>103.83</ele>
        <time>2022-09-19T13:19:10.487Z</time>
      </trkpt>
      <trkpt lat="49.53185" lon="3.7413">
        <ele>104.38</ele>
        <time>2022-09-19T13:19:19.518Z</time>
      </trkpt>
      <trkpt lat="49.53175" lon="3.74125">
        <ele>106.46</ele>
        <time>2022-09-19T13:19:29.000Z</time>
      </trkpt>
      <trkpt lat="49.53167" lon="3.74119">
        <ele>108.54</ele>
        <time>2022-09-19T13:19:38.996Z</time>
      </trkpt>
      <trkpt lat="49.53152" lon="3.74114">
        <ele>111.26</ele>
        <time>2022-09-19T13:19:49.000Z</time>
      </trkpt>
      <trkpt lat="49.53142" lon="3.74113">
        <ele>114.07</ele>
        <time>2022-09-19T13:19:58.321Z</time>
      </trkpt>
      <trkpt lat="49.53133" lon="3.74109">
        <ele>116.54</ele>
        <time>2022-09-19T13:20:07.459Z</time>
      </trkpt>
      <trkpt lat="49.53124" lon="3.74103">
        <ele>119.8</ele>
        <time>2022-09-19T13:20:16.615Z</time>
      </trkpt>
      <trkpt lat="49.53116" lon="3.74098">
        <ele>122.09</ele>
        <time>2022-09-19T13:20:26.079Z</time>
      </trkpt>
      <trkpt lat="49.53105" lon="3.7409">
        <ele>124.17</ele>
        <time>2022-09-19T13:20:35.861Z</time>
      </trkpt>
      <trkpt lat="49.53096" lon="3.74078">
        <ele>125.73</ele>
        <time>2022-09-19T13:20:44.900Z</time>
      </trkpt>
      <trkpt lat="49.53088" lon="3.74063">
        <ele>125.85</ele>
        <time>2022-09-19T13:20:54.220Z</time>
      </trkpt>
      <trkpt lat="49.53084" lon="3.74043">
        <ele>125.93</ele>
        <time>2022-09-19T13:21:03.493Z</time>
      </trkpt>
      <trkpt lat="49.53083" lon="3.74028">
        <ele>125.61</ele>
        <time>2022-09-19T13:21:13.000Z</time>
      </trkpt>
      <trkpt lat="49.53084" lon="3.74013">
        <ele>125.01</ele>
        <time>2022-09-19T13:21:22.578Z</time>
      </trkpt>
      <trkpt lat="49.53084" lon="3.74002">
        <ele>123.9</ele>
        <time>2022-09-19T13:21:31.875Z</time>
      </trkpt>
      <trkpt lat="49.53084" lon="3.73988">
        <ele>123.35</ele>
        <time>2022-09-19T13:21:40.924Z</time>
      </trkpt>
      <trkpt lat="49.53084" lon="3.73977">
        <ele>122.61</ele>
        <time>2022-09-19T13:21:50.419Z</time>
      </trkpt>
      <trkpt lat="49.53082" lon="3.73963">
        <ele>121.38</ele>
        <time>2022-09-19T13:21:59.933Z</time>
      </trkpt>
      <trkpt lat="49.5308" lon="3.73947">
        <ele>120.23</ele>
        <time>2022-09-19T13:22:09.557Z</time>
      </trkpt>
      <trkpt lat="49.53082" lon="3.73921">
        <ele>119.66</ele>
        <time>2022-09-19T13:22:19.000Z</time>
      </trkpt>
      <trkpt lat="49.53087" lon="3.73909">
        <ele>119</ele>
        <time>2022-09-19T13:22:28.696Z</time>
      </trkpt>
      <trkpt lat="49.53093" lon="3.73896">
        <ele>118.28</ele>
        <time>2022-09-19T13:22:38.823Z</time>
      </trkpt>
      <trkpt lat="49.53099" lon="3.7388">
        <ele>117.64</ele>
        <time>2022-09-19T13:22:48.673Z</time>
      </trkpt>
      <trkpt lat="49.53106" lon="3.73864">
        <ele>117.26</ele>
        <time>2022-09-19T13:22:58.000Z</time>
      </trkpt>
      <trkpt lat="49.53114" lon="3.73845">
        <ele>116.73</ele>
        <time>2022-09-19T13:23:07.927Z</time>
      </trkpt>
      <trkpt lat="49.5312" lon="3.73828">
        <ele>116.39</ele>
        <time>2022-09-19T13:23:17.398Z</time>
      </trkpt>
      <trkpt lat="49.53119" lon="3.73811">
        <ele>116.15</ele>
        <time>2022-09-19T13:23:26.667Z</time>
      </trkpt>
      <trkpt lat="49.53117" lon="3.73796">
        <ele>117.04</ele>
        <time>2022-09-19T13:23:35.781Z</time>
      </trkpt>
      <trkpt lat="49.53114" lon="3.73787">
        <ele>118.27</ele>
        <time>2022-09-19T13:23:44.862Z</time>
      </trkpt>
      <trkpt lat="49.53112" lon="3.73783">
        <ele>119.94</ele>
        <time>2022-09-19T13:23:53.898Z</time>
      </trkpt>
      <trkpt lat="49.53109" lon="3.73782">
        <ele>121</ele>
        <time>2022-09-19T13:24:03.904Z</time>
      </trkpt>
      <trkpt lat="49.53105" lon="3.73777">
        <ele>121.44</ele>
        <time>2022-09-19T13:24:13.635Z</time>
      </trkpt>
      <trkpt lat="49.53099" lon="3.7377">
        <ele>121.83</ele>
        <time>2022-09-19T13:24:22.918Z</time>
      </trkpt>
      <trkpt lat="49.53091" lon="3.73758">
        <ele>121.7</ele>
        <time>2022-09-19T13:24:32.764Z</time>
      </trkpt>
      <trkpt lat="49.53086" lon="3.73743">
        <ele>122.36</ele>
        <time>2022-09-19T13:24:42.000Z</time>
      </trkpt>
      <trkpt lat="49.53085" lon="3.73724">
        <ele>123.19</ele>
        <time>2022-09-19T13:24:51.398Z</time>
      </trkpt>
      <trkpt lat="49.53089" lon="3.73708">
        <ele>123.74</ele>
        <time>2022-09-19T13:25:01.000Z</time>
      </trkpt>
      <trkpt lat="49.53089" lon="3.73693">
        <ele>123.49</ele>
        <time>2022-09-19T13:25:10.561Z</time>
      </trkpt>
      <trkpt lat="49.53095" lon="3.73689">
        <ele>120.48</ele>
        <time>2022-09-19T13:25:20.000Z</time>
      </trkpt>
      <trkpt lat="49.53179" lon="3.73674">
        <ele>145.2</ele>
        <time>2022-09-19T13:25:30.000Z</time>
      </trkpt>
      <trkpt lat="49.53157" lon="3.7366">
        <ele>146.97</ele>
        <time>2022-09-19T13:25:40.000Z</time>
      </trkpt>
      <trkpt lat="49.53154" lon="3.73652">
        <ele>146.54</ele>
        <time>2022-09-19T13:25:50.000Z</time>
      </trkpt>
      <trkpt lat="49.53148" lon="3.73645">
        <ele>146.14</ele>
        <time>2022-09-19T13:25:59.450Z</time>
      </trkpt>
      <trkpt lat="49.53147" lon="3.7363">
        <ele>144.89</ele>
        <time>2022-09-19T13:26:08.957Z</time>
      </trkpt>
      <trkpt lat="49.53151" lon="3.73618">
        <ele>143.13</ele>
        <time>2022-09-19T13:26:18.000Z</time>
      </trkpt>
      <trkpt lat="49.53153" lon="3.7361">
        <ele>141.2</ele>
        <time>2022-09-19T13:26:27.351Z</time>
      </trkpt>
      <trkpt lat="49.53155" lon="3.73605">
        <ele>139.75</ele>
        <time>2022-09-19T13:26:36.355Z</time>
      </trkpt>
      <trkpt lat="49.53159" lon="3.73598">
        <ele>138.9</ele>
        <time>2022-09-19T13:26:45.917Z</time>
      </trkpt>
      <trkpt lat="49.53163" lon="3.73589">
        <ele>138.11</ele>
        <time>2022-09-19T13:26:55.236Z</time>
      </trkpt>
      <trkpt lat="49.53167" lon="3.7358">
        <ele>136.74</ele>
        <time>2022-09-19T13:27:04.794Z</time>
      </trkpt>
      <trkpt lat="49.53171" lon="3.73572">
        <ele>135.42</ele>
        <time>2022-09-19T13:27:14.197Z</time>
      </trkpt>
      <trkpt lat="49.53177" lon="3.73561">
        <ele>134.06</ele>
        <time>2022-09-19T13:27:23.482Z</time>
      </trkpt>
      <trkpt lat="49.53179" lon="3.73547">
        <ele>132.27</ele>
        <time>2022-09-19T13:27:32.612Z</time>
      </trkpt>
      <trkpt lat="49.53181" lon="3.73536">
        <ele>130.32</ele>
        <time>2022-09-19T13:27:41.777Z</time>
      </trkpt>
      <trkpt lat="49.53182" lon="3.73524">
        <ele>128.57</ele>
        <time>2022-09-19T13:27:51.477Z</time>
      </trkpt>
      <trkpt lat="49.53184" lon="3.73522">
        <ele>127.38</ele>
        <time>2022-09-19T13:28:01.000Z</time>
      </trkpt>
      <trkpt lat="49.53185" lon="3.73521">
        <ele>128.19</ele>
        <time>2022-09-19T13:28:10.690Z</time>
      </trkpt>
      <trkpt lat="49.53185" lon="3.73519">
        <ele>128.92</ele>
        <time>2022-09-19T13:28:20.000Z</time>
      </trkpt>
      <trkpt lat="49.53187" lon="3.73518">
        <ele>104.44</ele>
        <time>2022-09-19T13:28:31.000Z</time>
      </trkpt>
      <trkpt lat="49.53186" lon="3.7352">
        <ele>104.44</ele>
        <time>2022-09-19T13:28:40.590Z</time>
      </trkpt>
      <trkpt lat="49.53189" lon="3.7353">
        <ele>104.44</ele>
        <time>2022-09-19T13:28:49.719Z</time>
      </trkpt>
      <trkpt lat="49.532" lon="3.73529">
        <ele>104.44</ele>
        <time>2022-09-19T13:28:59.000Z</time>
      </trkpt>
      <trkpt lat="49.53209" lon="3.73519">
        <ele>104.44</ele>
        <time>2022-09-19T13:29:09.000Z</time>
      </trkpt>
      <trkpt lat="49.53212" lon="3.73507">
        <ele>104.44</ele>
        <time>2022-09-19T13:29:18.550Z</time>
      </trkpt>
      <trkpt lat="49.53217" lon="3.735">
        <ele>104.44</ele>
        <time>2022-09-19T13:29:28.000Z</time>
      </trkpt>
      <trkpt lat="49.53218" lon="3.73496">
        <ele>104.44</ele>
        <time>2022-09-19T13:29:37.553Z</time>
      </trkpt>
      <trkpt lat="49.53216" lon="3.73511">
        <ele>104.44</ele>
        <time>2022-09-19T13:29:46.892Z</time>
      </trkpt>
      <trkpt lat="49.53215" lon="3.73509">
        <ele>104.44</ele>
        <time>2022-09-19T13:29:56.000Z</time>
      </trkpt>
      <trkpt lat="49.53219" lon="3.73503">
        <ele>104.68</ele>
        <time>2022-09-19T13:30:05.630Z</time>
      </trkpt>
      <trkpt lat="49.53228" lon="3.73503">
        <ele>104.44</ele>
        <time>2022-09-19T13:30:14.810Z</time>
      </trkpt>
      <trkpt lat="49.53235" lon="3.73497">
        <ele>104.44</ele>
        <time>2022-09-19T13:30:23.839Z</time>
      </trkpt>
      <trkpt lat="49.53244" lon="3.7349">
        <ele>104.44</ele>
        <time>2022-09-19T13:30:32.944Z</time>
      </trkpt>
      <trkpt lat="49.53256" lon="3.73481">
        <ele>104.44</ele>
        <time>2022-09-19T13:30:42.268Z</time>
      </trkpt>
      <trkpt lat="49.5327" lon="3.73488">
        <ele>104.44</ele>
        <time>2022-09-19T13:30:52.000Z</time>
      </trkpt>
      <trkpt lat="49.53276" lon="3.73488">
        <ele>104.44</ele>
        <time>2022-09-19T13:31:01.316Z</time>
      </trkpt>
      <trkpt lat="49.53288" lon="3.73476">
        <ele>104.44</ele>
        <time>2022-09-19T13:31:10.769Z</time>
      </trkpt>
      <trkpt lat="49.53294" lon="3.73461">
        <ele>104.44</ele>
        <time>2022-09-19T13:31:19.774Z</time>
      </trkpt>
      <trkpt lat="49.53296" lon="3.73443">
        <ele>104.44</ele>
        <time>2022-09-19T13:31:29.000Z</time>
      </trkpt>
      <trkpt lat="49.53293" lon="3.73436">
        <ele>104.44</ele>
        <time>2022-09-19T13:31:39.000Z</time>
      </trkpt>
      <trkpt lat="49.53294" lon="3.73434">
        <ele>104.44</ele>
        <time>2022-09-19T13:31:49.000Z</time>
      </trkpt>
      <trkpt lat="49.53294" lon="3.73426">
        <ele>104.44</ele>
        <time>2022-09-19T13:31:59.000Z</time>
      </trkpt>
      <trkpt lat="49.53287" lon="3.7342">
        <ele>104.44</ele>
        <time>2022-09-19T13:32:09.000Z</time>
      </trkpt>
      <trkpt lat="49.53285" lon="3.73418">
        <ele>104.44</ele>
        <time>2022-09-19T13:32:18.390Z</time>
      </trkpt>
      <trkpt lat="49.53282" lon="3.73418">
        <ele>104.44</ele>
        <time>2022-09-19T13:32:28.000Z</time>
      </trkpt>
      <trkpt lat="49.53281" lon="3.7342">
        <ele>104.44</ele>
        <time>2022-09-19T13:32:38.000Z</time>
      </trkpt>
      <trkpt lat="49.53282" lon="3.73418">
        <ele>104.44</ele>
        <time>2022-09-19T13:32:48.000Z</time>
      </trkpt>
      <trkpt lat="49.5328" lon="3.73418">
        <ele>104.44</ele>
        <time>2022-09-19T13:32:57.449Z</time>
      </trkpt>
      <trkpt lat="49.53273" lon="3.73422">
        <ele>104.44</ele>
        <time>2022-09-19T13:33:07.000Z</time>
      </trkpt>
      <trkpt lat="49.53268" lon="3.7343">
        <ele>105.24</ele>
        <time>2022-09-19T13:33:17.000Z</time>
      </trkpt>
      <trkpt lat="49.53266" lon="3.73431">
        <ele>103.97</ele>
        <time>2022-09-19T13:33:26.844Z</time>
      </trkpt>
      <trkpt lat="49.53267" lon="3.7343">
        <ele>103.54</ele>
        <time>2022-09-19T13:33:37.000Z</time>
      </trkpt>
      <trkpt lat="49.53265" lon="3.7343">
        <ele>104.44</ele>
        <time>2022-09-19T13:33:46.738Z</time>
      </trkpt>
      <trkpt lat="49.5326" lon="3.7343">
        <ele>105.24</ele>
        <time>2022-09-19T13:33:56.000Z</time>
      </trkpt>
      <trkpt lat="49.53259" lon="3.73429">
        <ele>104.44</ele>
        <time>2022-09-19T13:34:06.000Z</time>
      </trkpt>
      <trkpt lat="49.53261" lon="3.73427">
        <ele>104.44</ele>
        <time>2022-09-19T13:34:16.000Z</time>
      </trkpt>
      <trkpt lat="49.53264" lon="3.73431">
        <ele>104.44</ele>
        <time>2022-09-19T13:34:26.000Z</time>
      </trkpt>
      <trkpt lat="49.53265" lon="3.73431">
        <ele>105.24</ele>
        <time>2022-09-19T13:35:06.000Z</time>
      </trkpt>
      <trkpt lat="49.53267" lon="3.73434">
        <ele>105.24</ele>
        <time>2022-09-19T13:35:16.000Z</time>
      </trkpt>
      <trkpt lat="49.53267" lon="3.73437">
        <ele>104.44</ele>
        <time>2022-09-19T13:35:26.000Z</time>
      </trkpt>
      <trkpt lat="49.53267" lon="3.73438">
        <ele>104.44</ele>
        <time>2022-09-19T13:35:36.000Z</time>
      </trkpt>
      <trkpt lat="49.53267" lon="3.73436">
        <ele>104.44</ele>
        <time>2022-09-19T13:35:46.000Z</time>
      </trkpt>
      <trkpt lat="49.53268" lon="3.73436">
        <ele>103.74</ele>
        <time>2022-09-19T13:35:57.000Z</time>
      </trkpt>
      <trkpt lat="49.5327" lon="3.73436">
        <ele>104.44</ele>
        <time>2022-09-19T13:36:07.000Z</time>
      </trkpt>
      <trkpt lat="49.5327" lon="3.73437">
        <ele>104.44</ele>
        <time>2022-09-19T13:36:42.000Z</time>
      </trkpt>
      <trkpt lat="49.5327" lon="3.73438">
        <ele>105.24</ele>
        <time>2022-09-19T13:37:15.000Z</time>
      </trkpt>
      <trkpt lat="49.53268" lon="3.73432">
        <ele>104.44</ele>
        <time>2022-09-19T13:37:24.610Z</time>
      </trkpt>
      <trkpt lat="49.53269" lon="3.73429">
        <ele>105.04</ele>
        <time>2022-09-19T13:37:34.000Z</time>
      </trkpt>
      <trkpt lat="49.53269" lon="3.73427">
        <ele>104.46</ele>
        <time>2022-09-19T13:37:44.000Z</time>
      </trkpt>
      <trkpt lat="49.53271" lon="3.73429">
        <ele>105.24</ele>
        <time>2022-09-19T13:37:54.000Z</time>
      </trkpt>
      <trkpt lat="49.53273" lon="3.73431">
        <ele>104.44</ele>
        <time>2022-09-19T13:38:04.000Z</time>
      </trkpt>
      <trkpt lat="49.53272" lon="3.73429">
        <ele>104.44</ele>
        <time>2022-09-19T13:38:14.000Z</time>
      </trkpt>
      <trkpt lat="49.53273" lon="3.73435">
        <ele>105.24</ele>
        <time>2022-09-19T13:38:24.000Z</time>
      </trkpt>
      <trkpt lat="49.53273" lon="3.73436">
        <ele>104.44</ele>
        <time>2022-09-19T13:38:48.000Z</time>
      </trkpt>
      <trkpt lat="49.53275" lon="3.7343">
        <ele>104.44</ele>
        <time>2022-09-19T13:38:58.000Z</time>
      </trkpt>
      <trkpt lat="49.53279" lon="3.73423">
        <ele>104.44</ele>
        <time>2022-09-19T13:39:07.678Z</time>
      </trkpt>
      <trkpt lat="49.5328" lon="3.73413">
        <ele>104.44</ele>
        <time>2022-09-19T13:39:17.000Z</time>
      </trkpt>
      <trkpt lat="49.53283" lon="3.73415">
        <ele>104.44</ele>
        <time>2022-09-19T13:39:27.000Z</time>
      </trkpt>
      <trkpt lat="49.53291" lon="3.73421">
        <ele>104.44</ele>
        <time>2022-09-19T13:39:36.589Z</time>
      </trkpt>
      <trkpt lat="49.53299" lon="3.73431">
        <ele>104.44</ele>
        <time>2022-09-19T13:39:45.932Z</time>
      </trkpt>
      <trkpt lat="49.53298" lon="3.73439">
        <ele>104.44</ele>
        <time>2022-09-19T13:39:55.000Z</time>
      </trkpt>
      <trkpt lat="49.53294" lon="3.73449">
        <ele>104.44</ele>
        <time>2022-09-19T13:40:04.798Z</time>
      </trkpt>
      <trkpt lat="49.53289" lon="3.73462">
        <ele>104.44</ele>
        <time>2022-09-19T13:40:15.000Z</time>
      </trkpt>
      <trkpt lat="49.53281" lon="3.73473">
        <ele>104.44</ele>
        <time>2022-09-19T13:40:24.836Z</time>
      </trkpt>
      <trkpt lat="49.53275" lon="3.73481">
        <ele>104.44</ele>
        <time>2022-09-19T13:40:34.000Z</time>
      </trkpt>
      <trkpt lat="49.53272" lon="3.73483">
        <ele>104.44</ele>
        <time>2022-09-19T13:40:43.399Z</time>
      </trkpt>
      <trkpt lat="49.53264" lon="3.73491">
        <ele>104.44</ele>
        <time>2022-09-19T13:40:52.577Z</time>
      </trkpt>
      <trkpt lat="49.53255" lon="3.73502">
        <ele>104.44</ele>
        <time>2022-09-19T13:41:01.950Z</time>
      </trkpt>
      <trkpt lat="49.53247" lon="3.73505">
        <ele>104.44</ele>
        <time>2022-09-19T13:41:11.195Z</time>
      </trkpt>
      <trkpt lat="49.53236" lon="3.73513">
        <ele>104.44</ele>
        <time>2022-09-19T13:41:20.497Z</time>
      </trkpt>
      <trkpt lat="49.53227" lon="3.73519">
        <ele>104.44</ele>
        <time>2022-09-19T13:41:29.695Z</time>
      </trkpt>
      <trkpt lat="49.5322" lon="3.73525">
        <ele>104.44</ele>
        <time>2022-09-19T13:41:38.771Z</time>
      </trkpt>
      <trkpt lat="49.53212" lon="3.73529">
        <ele>120.79</ele>
        <time>2022-09-19T13:41:48.556Z</time>
      </trkpt>
      <trkpt lat="49.53202" lon="3.73533">
        <ele>124.27</ele>
        <time>2022-09-19T13:41:57.899Z</time>
      </trkpt>
      <trkpt lat="49.53193" lon="3.73538">
        <ele>128.31</ele>
        <time>2022-09-19T13:42:07.000Z</time>
      </trkpt>
      <trkpt lat="49.53183" lon="3.73548">
        <ele>130.77</ele>
        <time>2022-09-19T13:42:16.639Z</time>
      </trkpt>
      <trkpt lat="49.53174" lon="3.73554">
        <ele>132.55</ele>
        <time>2022-09-19T13:42:26.822Z</time>
      </trkpt>
      <trkpt lat="49.5317" lon="3.73555">
        <ele>133.8</ele>
        <time>2022-09-19T13:42:37.000Z</time>
      </trkpt>
      <trkpt lat="49.53162" lon="3.73565">
        <ele>134.84</ele>
        <time>2022-09-19T13:42:47.000Z</time>
      </trkpt>
      <trkpt lat="49.53152" lon="3.73579">
        <ele>134.27</ele>
        <time>2022-09-19T13:42:57.000Z</time>
      </trkpt>
      <trkpt lat="49.53144" lon="3.73594">
        <ele>133.13</ele>
        <time>2022-09-19T13:43:06.910Z</time>
      </trkpt>
      <trkpt lat="49.53138" lon="3.7361">
        <ele>131.54</ele>
        <time>2022-09-19T13:43:16.811Z</time>
      </trkpt>
      <trkpt lat="49.53133" lon="3.73624">
        <ele>129.84</ele>
        <time>2022-09-19T13:43:25.934Z</time>
      </trkpt>
      <trkpt lat="49.53126" lon="3.73634">
        <ele>128.71</ele>
        <time>2022-09-19T13:43:36.000Z</time>
      </trkpt>
      <trkpt lat="49.53119" lon="3.7364">
        <ele>128.06</ele>
        <time>2022-09-19T13:43:45.870Z</time>
      </trkpt>
      <trkpt lat="49.53112" lon="3.73644">
        <ele>127.47</ele>
        <time>2022-09-19T13:43:54.891Z</time>
      </trkpt>
      <trkpt lat="49.53103" lon="3.73646">
        <ele>126.39</ele>
        <time>2022-09-19T13:44:04.417Z</time>
      </trkpt>
      <trkpt lat="49.53098" lon="3.73656">
        <ele>124.96</ele>
        <time>2022-09-19T13:44:13.694Z</time>
      </trkpt>
      <trkpt lat="49.53096" lon="3.73678">
        <ele>124.91</ele>
        <time>2022-09-19T13:44:23.000Z</time>
      </trkpt>
      <trkpt lat="49.53089" lon="3.73693">
        <ele>124.5</ele>
        <time>2022-09-19T13:44:32.437Z</time>
      </trkpt>
      <trkpt lat="49.53081" lon="3.73701">
        <ele>123.87</ele>
        <time>2022-09-19T13:44:41.932Z</time>
      </trkpt>
      <trkpt lat="49.53079" lon="3.73705">
        <ele>123.47</ele>
        <time>2022-09-19T13:44:51.514Z</time>
      </trkpt>
      <trkpt lat="49.53079" lon="3.73714">
        <ele>123.22</ele>
        <time>2022-09-19T13:45:00.771Z</time>
      </trkpt>
      <trkpt lat="49.53077" lon="3.73725">
        <ele>123.45</ele>
        <time>2022-09-19T13:45:09.981Z</time>
      </trkpt>
      <trkpt lat="49.53072" lon="3.73742">
        <ele>123.57</ele>
        <time>2022-09-19T13:45:19.054Z</time>
      </trkpt>
      <trkpt lat="49.53068" lon="3.73757">
        <ele>122.94</ele>
        <time>2022-09-19T13:45:28.718Z</time>
      </trkpt>
      <trkpt lat="49.53067" lon="3.73769">
        <ele>123.29</ele>
        <time>2022-09-19T13:45:37.917Z</time>
      </trkpt>
      <trkpt lat="49.53064" lon="3.73784">
        <ele>124</ele>
        <time>2022-09-19T13:45:47.534Z</time>
      </trkpt>
      <trkpt lat="49.53061" lon="3.73796">
        <ele>124.42</ele>
        <time>2022-09-19T13:45:56.776Z</time>
      </trkpt>
      <trkpt lat="49.53057" lon="3.73804">
        <ele>124.94</ele>
        <time>2022-09-19T13:46:06.095Z</time>
      </trkpt>
      <trkpt lat="49.53054" lon="3.73809">
        <ele>125.32</ele>
        <time>2022-09-19T13:46:15.920Z</time>
      </trkpt>
      <trkpt lat="49.53051" lon="3.73817">
        <ele>125.53</ele>
        <time>2022-09-19T13:46:25.096Z</time>
      </trkpt>
      <trkpt lat="49.53047" lon="3.73825">
        <ele>125.35</ele>
        <time>2022-09-19T13:46:34.772Z</time>
      </trkpt>
      <trkpt lat="49.53046" lon="3.73836">
        <ele>126.04</ele>
        <time>2022-09-19T13:46:43.837Z</time>
      </trkpt>
      <trkpt lat="49.53042" lon="3.73845">
        <ele>125.68</ele>
        <time>2022-09-19T13:46:53.000Z</time>
      </trkpt>
      <trkpt lat="49.53037" lon="3.73845">
        <ele>125.36</ele>
        <time>2022-09-19T13:47:02.695Z</time>
      </trkpt>
      <trkpt lat="49.53028" lon="3.73847">
        <ele>125.11</ele>
        <time>2022-09-19T13:47:11.818Z</time>
      </trkpt>
      <trkpt lat="49.53023" lon="3.73847">
        <ele>122.59</ele>
        <time>2022-09-19T13:47:22.000Z</time>
      </trkpt>
      <trkpt lat="49.53015" lon="3.73852">
        <ele>118.4</ele>
        <time>2022-09-19T13:47:31.718Z</time>
      </trkpt>
      <trkpt lat="49.53004" lon="3.73856">
        <ele>107.17</ele>
        <time>2022-09-19T13:47:41.000Z</time>
      </trkpt>
      <trkpt lat="49.52991" lon="3.73856">
        <ele>104.96</ele>
        <time>2022-09-19T13:47:50.595Z</time>
      </trkpt>
      <trkpt lat="49.52978" lon="3.73861">
        <ele>105</ele>
        <time>2022-09-19T13:47:59.876Z</time>
      </trkpt>
      <trkpt lat="49.52966" lon="3.73879">
        <ele>106.75</ele>
        <time>2022-09-19T13:48:09.271Z</time>
      </trkpt>
      <trkpt lat="49.52956" lon="3.739">
        <ele>109.03</ele>
        <time>2022-09-19T13:48:18.657Z</time>
      </trkpt>
      <trkpt lat="49.5295" lon="3.7391">
        <ele>111.27</ele>
        <time>2022-09-19T13:48:28.698Z</time>
      </trkpt>
      <trkpt lat="49.52944" lon="3.73913">
        <ele>113.47</ele>
        <time>2022-09-19T13:48:38.791Z</time>
      </trkpt>
      <trkpt lat="49.5294" lon="3.73923">
        <ele>115.75</ele>
        <time>2022-09-19T13:48:48.000Z</time>
      </trkpt>
      <trkpt lat="49.52932" lon="3.73934">
        <ele>118.18</ele>
        <time>2022-09-19T13:48:57.510Z</time>
      </trkpt>
      <trkpt lat="49.52927" lon="3.73944">
        <ele>119.82</ele>
        <time>2022-09-19T13:49:06.517Z</time>
      </trkpt>
      <trkpt lat="49.52921" lon="3.73952">
        <ele>121.75</ele>
        <time>2022-09-19T13:49:15.591Z</time>
      </trkpt>
      <trkpt lat="49.52913" lon="3.73959">
        <ele>123.4</ele>
        <time>2022-09-19T13:49:25.076Z</time>
      </trkpt>
      <trkpt lat="49.52906" lon="3.73965">
        <ele>124.21</ele>
        <time>2022-09-19T13:49:34.274Z</time>
      </trkpt>
      <trkpt lat="49.52902" lon="3.73966">
        <ele>126.64</ele>
        <time>2022-09-19T13:49:43.795Z</time>
      </trkpt>
      <trkpt lat="49.52894" lon="3.73969">
        <ele>132.21</ele>
        <time>2022-09-19T13:49:54.000Z</time>
      </trkpt>
      <trkpt lat="49.52882" lon="3.73977">
        <ele>137.35</ele>
        <time>2022-09-19T13:50:03.751Z</time>
      </trkpt>
      <trkpt lat="49.52873" lon="3.73983">
        <ele>141.64</ele>
        <time>2022-09-19T13:50:12.816Z</time>
      </trkpt>
      <trkpt lat="49.52865" lon="3.73991">
        <ele>145.45</ele>
        <time>2022-09-19T13:50:22.511Z</time>
      </trkpt>
      <trkpt lat="49.52859" lon="3.73996">
        <ele>146.92</ele>
        <time>2022-09-19T13:50:31.699Z</time>
      </trkpt>
      <trkpt lat="49.52855" lon="3.73998">
        <ele>149.98</ele>
        <time>2022-09-19T13:50:40.954Z</time>
      </trkpt>
      <trkpt lat="49.52849" lon="3.73998">
        <ele>152.65</ele>
        <time>2022-09-19T13:50:50.000Z</time>
      </trkpt>
      <trkpt lat="49.52851" lon="3.73996">
        <ele>158.15</ele>
        <time>2022-09-19T13:50:59.510Z</time>
      </trkpt>
      <trkpt lat="49.52847" lon="3.73998">
        <ele>164.74</ele>
        <time>2022-09-19T13:51:09.000Z</time>
      </trkpt>
      <trkpt lat="49.52844" lon="3.73998">
        <ele>172.1</ele>
        <time>2022-09-19T13:51:19.000Z</time>
      </trkpt>
      <trkpt lat="49.52841" lon="3.73997">
        <ele>172.86</ele>
        <time>2022-09-19T13:51:29.000Z</time>
      </trkpt>
      <trkpt lat="49.52838" lon="3.73997">
        <ele>173.5</ele>
        <time>2022-09-19T13:51:39.000Z</time>
      </trkpt>
      <trkpt lat="49.52837" lon="3.74">
        <ele>174.64</ele>
        <time>2022-09-19T13:51:48.197Z</time>
      </trkpt>
      <trkpt lat="49.52834" lon="3.74015">
        <ele>175.87</ele>
        <time>2022-09-19T13:51:57.933Z</time>
      </trkpt>
      <trkpt lat="49.52829" lon="3.74029">
        <ele>177.23</ele>
        <time>2022-09-19T13:52:06.934Z</time>
      </trkpt>
      <trkpt lat="49.52823" lon="3.74039">
        <ele>178.89</ele>
        <time>2022-09-19T13:52:17.000Z</time>
      </trkpt>
      <trkpt lat="49.52821" lon="3.74044">
        <ele>179.57</ele>
        <time>2022-09-19T13:52:27.000Z</time>
      </trkpt>
      <trkpt lat="49.52817" lon="3.74047">
        <ele>180.4</ele>
        <time>2022-09-19T13:52:36.773Z</time>
      </trkpt>
      <trkpt lat="49.52816" lon="3.74052">
        <ele>181.06</ele>
        <time>2022-09-19T13:52:46.000Z</time>
      </trkpt>
      <trkpt lat="49.5281" lon="3.74054">
        <ele>181.65</ele>
        <time>2022-09-19T13:52:55.501Z</time>
      </trkpt>
      <trkpt lat="49.52805" lon="3.74054">
        <ele>182.07</ele>
        <time>2022-09-19T13:53:05.000Z</time>
      </trkpt>
      <trkpt lat="49.52802" lon="3.74053">
        <ele>183.11</ele>
        <time>2022-09-19T13:53:15.000Z</time>
      </trkpt>
      <trkpt lat="49.52796" lon="3.74053">
        <ele>184.35</ele>
        <time>2022-09-19T13:53:24.697Z</time>
      </trkpt>
      <trkpt lat="49.52786" lon="3.7406">
        <ele>185.21</ele>
        <time>2022-09-19T13:53:33.953Z</time>
      </trkpt>
      <trkpt lat="49.5278" lon="3.74066">
        <ele>186.34</ele>
        <time>2022-09-19T13:53:43.505Z</time>
      </trkpt>
      <trkpt lat="49.52775" lon="3.74072">
        <ele>187.71</ele>
        <time>2022-09-19T13:53:52.596Z</time>
      </trkpt>
      <trkpt lat="49.5277" lon="3.74078">
        <ele>188.24</ele>
        <time>2022-09-19T13:54:02.000Z</time>
      </trkpt>
      <trkpt lat="49.52768" lon="3.74084">
        <ele>188.52</ele>
        <time>2022-09-19T13:54:11.652Z</time>
      </trkpt>
      <trkpt lat="49.52769" lon="3.74094">
        <ele>188.91</ele>
        <time>2022-09-19T13:54:20.795Z</time>
      </trkpt>
      <trkpt lat="49.52772" lon="3.74101">
        <ele>188.6</ele>
        <time>2022-09-19T13:54:30.000Z</time>
      </trkpt>
      <trkpt lat="49.52774" lon="3.74111">
        <ele>187.83</ele>
        <time>2022-09-19T13:54:39.670Z</time>
      </trkpt>
      <trkpt lat="49.52771" lon="3.74118">
        <ele>187.3</ele>
        <time>2022-09-19T13:54:49.312Z</time>
      </trkpt>
      <trkpt lat="49.52769" lon="3.74126">
        <ele>186.79</ele>
        <time>2022-09-19T13:54:58.590Z</time>
      </trkpt>
      <trkpt lat="49.52768" lon="3.74136">
        <ele>186.15</ele>
        <time>2022-09-19T13:55:08.000Z</time>
      </trkpt>
      <trkpt lat="49.52768" lon="3.74145">
        <ele>180.83</ele>
        <time>2022-09-19T13:55:19.000Z</time>
      </trkpt>
      <trkpt lat="49.52765" lon="3.74151">
        <ele>177.81</ele>
        <time>2022-09-19T13:55:29.000Z</time>
      </trkpt>
      <trkpt lat="49.52762" lon="3.74151">
        <ele>175.19</ele>
        <time>2022-09-19T13:55:39.000Z</time>
      </trkpt>
      <trkpt lat="49.52754" lon="3.7416">
        <ele>173.97</ele>
        <time>2022-09-19T13:55:49.000Z</time>
      </trkpt>
      <trkpt lat="49.5275" lon="3.7416">
        <ele>173.91</ele>
        <time>2022-09-19T13:55:59.000Z</time>
      </trkpt>
      <trkpt lat="49.52748" lon="3.74161">
        <ele>174.76</ele>
        <time>2022-09-19T13:56:10.790Z</time>
      </trkpt>
      <trkpt lat="49.52743" lon="3.74162">
        <ele>175.55</ele>
        <time>2022-09-19T13:56:20.000Z</time>
      </trkpt>
      <trkpt lat="49.52739" lon="3.74166">
        <ele>176.78</ele>
        <time>2022-09-19T13:56:30.000Z</time>
      </trkpt>
      <trkpt lat="49.52735" lon="3.74173">
        <ele>178.23</ele>
        <time>2022-09-19T13:56:40.000Z</time>
      </trkpt>
      <trkpt lat="49.52733" lon="3.74179">
        <ele>180.43</ele>
        <time>2022-09-19T13:56:50.000Z</time>
      </trkpt>
      <trkpt lat="49.52733" lon="3.74174">
        <ele>182.71</ele>
        <time>2022-09-19T13:57:00.000Z</time>
      </trkpt>
      <trkpt lat="49.52733" lon="3.74177">
        <ele>184.85</ele>
        <time>2022-09-19T13:57:10.000Z</time>
      </trkpt>
      <trkpt lat="49.52733" lon="3.74182">
        <ele>186.43</ele>
        <time>2022-09-19T13:57:19.296Z</time>
      </trkpt>
      <trkpt lat="49.52737" lon="3.74179">
        <ele>187.82</ele>
        <time>2022-09-19T13:57:28.840Z</time>
      </trkpt>
      <trkpt lat="49.52738" lon="3.74178">
        <ele>190.4</ele>
        <time>2022-09-19T13:57:46.000Z</time>
      </trkpt>
      <trkpt lat="49.52732" lon="3.74181">
        <ele>192.68</ele>
        <time>2022-09-19T13:57:56.000Z</time>
      </trkpt>
      <trkpt lat="49.52736" lon="3.74178">
        <ele>193.22</ele>
        <time>2022-09-19T13:58:25.000Z</time>
      </trkpt>
      <trkpt lat="49.52745" lon="3.74173">
        <ele>194.01</ele>
        <time>2022-09-19T13:58:35.000Z</time>
      </trkpt>
      <trkpt lat="49.52743" lon="3.74175">
        <ele>194.5</ele>
        <time>2022-09-19T13:58:45.000Z</time>
      </trkpt>
      <trkpt lat="49.52744" lon="3.74176">
        <ele>193.91</ele>
        <time>2022-09-19T13:58:56.000Z</time>
      </trkpt>
      <trkpt lat="49.52743" lon="3.74178">
        <ele>193.76</ele>
        <time>2022-09-19T13:59:18.000Z</time>
      </trkpt>
      <trkpt lat="49.52742" lon="3.74179">
        <ele>194.84</ele>
        <time>2022-09-19T13:59:40.356Z</time>
      </trkpt>
      <trkpt lat="49.52739" lon="3.74176">
        <ele>195.13</ele>
        <time>2022-09-19T13:59:50.000Z</time>
      </trkpt>
      <trkpt lat="49.52737" lon="3.74175">
        <ele>195.47</ele>
        <time>2022-09-19T14:00:00.000Z</time>
      </trkpt>
      <trkpt lat="49.52735" lon="3.74175">
        <ele>196.07</ele>
        <time>2022-09-19T14:00:10.000Z</time>
      </trkpt>
      <trkpt lat="49.52735" lon="3.74176">
        <ele>197.99</ele>
        <time>2022-09-19T14:00:49.000Z</time>
      </trkpt>
      <trkpt lat="49.52732" lon="3.74181">
        <ele>198.56</ele>
        <time>2022-09-19T14:00:58.224Z</time>
      </trkpt>
      <trkpt lat="49.52727" lon="3.74186">
        <ele>199.2</ele>
        <time>2022-09-19T14:01:08.000Z</time>
      </trkpt>
      <trkpt lat="49.52725" lon="3.74193">
        <ele>199.81</ele>
        <time>2022-09-19T14:01:17.359Z</time>
      </trkpt>
      <trkpt lat="49.52722" lon="3.74199">
        <ele>199.46</ele>
        <time>2022-09-19T14:01:26.443Z</time>
      </trkpt>
      <trkpt lat="49.52719" lon="3.74206">
        <ele>198.96</ele>
        <time>2022-09-19T14:01:36.459Z</time>
      </trkpt>
      <trkpt lat="49.52711" lon="3.74209">
        <ele>198.56</ele>
        <time>2022-09-19T14:01:46.622Z</time>
      </trkpt>
      <trkpt lat="49.52703" lon="3.74215">
        <ele>197.63</ele>
        <time>2022-09-19T14:01:56.000Z</time>
      </trkpt>
      <trkpt lat="49.52691" lon="3.74225">
        <ele>197.25</ele>
        <time>2022-09-19T14:02:05.245Z</time>
      </trkpt>
      <trkpt lat="49.52683" lon="3.74236">
        <ele>196.99</ele>
        <time>2022-09-19T14:02:15.000Z</time>
      </trkpt>
      <trkpt lat="49.52674" lon="3.74247">
        <ele>197.26</ele>
        <time>2022-09-19T14:02:24.321Z</time>
      </trkpt>
      <trkpt lat="49.52664" lon="3.74262">
        <ele>197.61</ele>
        <time>2022-09-19T14:02:34.000Z</time>
      </trkpt>
      <trkpt lat="49.52653" lon="3.74276">
        <ele>197.49</ele>
        <time>2022-09-19T14:02:43.342Z</time>
      </trkpt>
      <trkpt lat="49.52647" lon="3.74287">
        <ele>197.33</ele>
        <time>2022-09-19T14:02:53.000Z</time>
      </trkpt>
      <trkpt lat="49.52641" lon="3.743">
        <ele>196.97</ele>
        <time>2022-09-19T14:03:02.343Z</time>
      </trkpt>
      <trkpt lat="49.52635" lon="3.7431">
        <ele>196.47</ele>
        <time>2022-09-19T14:03:11.419Z</time>
      </trkpt>
      <trkpt lat="49.5263" lon="3.74318">
        <ele>195.88</ele>
        <time>2022-09-19T14:03:21.000Z</time>
      </trkpt>
      <trkpt lat="49.52624" lon="3.74327">
        <ele>194.91</ele>
        <time>2022-09-19T14:03:30.482Z</time>
      </trkpt>
      <trkpt lat="49.52618" lon="3.74334">
        <ele>193.1</ele>
        <time>2022-09-19T14:03:40.000Z</time>
      </trkpt>
      <trkpt lat="49.52611" lon="3.74341">
        <ele>191.83</ele>
        <time>2022-09-19T14:03:49.201Z</time>
      </trkpt>
      <trkpt lat="49.52607" lon="3.7435">
        <ele>190.06</ele>
        <time>2022-09-19T14:03:59.404Z</time>
      </trkpt>
      <trkpt lat="49.52601" lon="3.74351">
        <ele>189.02</ele>
        <time>2022-09-19T14:04:09.000Z</time>
      </trkpt>
      <trkpt lat="49.52595" lon="3.7435">
        <ele>187.67</ele>
        <time>2022-09-19T14:04:18.586Z</time>
      </trkpt>
      <trkpt lat="49.52591" lon="3.74354">
        <ele>184.96</ele>
        <time>2022-09-19T14:04:28.202Z</time>
      </trkpt>
      <trkpt lat="49.52585" lon="3.74363">
        <ele>181.13</ele>
        <time>2022-09-19T14:04:37.907Z</time>
      </trkpt>
      <trkpt lat="49.52579" lon="3.74373">
        <ele>176.89</ele>
        <time>2022-09-19T14:04:47.419Z</time>
      </trkpt>
      <trkpt lat="49.52572" lon="3.74382">
        <ele>171.79</ele>
        <time>2022-09-19T14:04:56.904Z</time>
      </trkpt>
      <trkpt lat="49.52563" lon="3.74391">
        <ele>168.79</ele>
        <time>2022-09-19T14:05:05.979Z</time>
      </trkpt>
      <trkpt lat="49.52553" lon="3.74403">
        <ele>167.6</ele>
        <time>2022-09-19T14:05:16.056Z</time>
      </trkpt>
      <trkpt lat="49.52543" lon="3.7441">
        <ele>167.42</ele>
        <time>2022-09-19T14:05:25.522Z</time>
      </trkpt>
      <trkpt lat="49.52539" lon="3.74421">
        <ele>167.1</ele>
        <time>2022-09-19T14:05:35.000Z</time>
      </trkpt>
      <trkpt lat="49.52538" lon="3.74424">
        <ele>166.49</ele>
        <time>2022-09-19T14:05:45.000Z</time>
      </trkpt>
      <trkpt lat="49.52533" lon="3.74433">
        <ele>165.02</ele>
        <time>2022-09-19T14:05:54.298Z</time>
      </trkpt>
      <trkpt lat="49.52528" lon="3.74435">
        <ele>163.28</ele>
        <time>2022-09-19T14:06:04.000Z</time>
      </trkpt>
      <trkpt lat="49.52526" lon="3.74437">
        <ele>162.29</ele>
        <time>2022-09-19T14:06:13.384Z</time>
      </trkpt>
      <trkpt lat="49.5252" lon="3.74434">
        <ele>161.76</ele>
        <time>2022-09-19T14:06:23.000Z</time>
      </trkpt>
      <trkpt lat="49.52519" lon="3.74433">
        <ele>162.11</ele>
        <time>2022-09-19T14:06:32.062Z</time>
      </trkpt>
      <trkpt lat="49.52511" lon="3.74439">
        <ele>162.99</ele>
        <time>2022-09-19T14:06:41.441Z</time>
      </trkpt>
      <trkpt lat="49.52502" lon="3.74443">
        <ele>164.1</ele>
        <time>2022-09-19T14:06:51.000Z</time>
      </trkpt>
      <trkpt lat="49.52491" lon="3.7445">
        <ele>165.28</ele>
        <time>2022-09-19T14:07:00.449Z</time>
      </trkpt>
      <trkpt lat="49.52481" lon="3.74454">
        <ele>166.24</ele>
        <time>2022-09-19T14:07:09.999Z</time>
      </trkpt>
      <trkpt lat="49.52472" lon="3.74455">
        <ele>167.46</ele>
        <time>2022-09-19T14:07:19.519Z</time>
      </trkpt>
      <trkpt lat="49.52465" lon="3.74455">
        <ele>169.29</ele>
        <time>2022-09-19T14:07:28.564Z</time>
      </trkpt>
      <trkpt lat="49.52455" lon="3.74453">
        <ele>172.09</ele>
        <time>2022-09-19T14:07:37.643Z</time>
      </trkpt>
      <trkpt lat="49.52446" lon="3.74453">
        <ele>174.18</ele>
        <time>2022-09-19T14:07:47.538Z</time>
      </trkpt>
      <trkpt lat="49.52437" lon="3.74453">
        <ele>176.34</ele>
        <time>2022-09-19T14:07:56.542Z</time>
      </trkpt>
      <trkpt lat="49.52426" lon="3.74452">
        <ele>178.59</ele>
        <time>2022-09-19T14:08:05.718Z</time>
      </trkpt>
      <trkpt lat="49.52412" lon="3.74456">
        <ele>179.94</ele>
        <time>2022-09-19T14:08:14.820Z</time>
      </trkpt>
      <trkpt lat="49.52404" lon="3.74459">
        <ele>180.78</ele>
        <time>2022-09-19T14:08:23.843Z</time>
      </trkpt>
      <trkpt lat="49.52396" lon="3.7446">
        <ele>180.69</ele>
        <time>2022-09-19T14:08:32.999Z</time>
      </trkpt>
      <trkpt lat="49.52388" lon="3.74462">
        <ele>180.42</ele>
        <time>2022-09-19T14:08:42.999Z</time>
      </trkpt>
      <trkpt lat="49.52377" lon="3.74458">
        <ele>181.52</ele>
        <time>2022-09-19T14:08:52.060Z</time>
      </trkpt>
      <trkpt lat="49.52365" lon="3.74455">
        <ele>183.18</ele>
        <time>2022-09-19T14:09:01.500Z</time>
      </trkpt>
      <trkpt lat="49.52355" lon="3.74453">
        <ele>184.05</ele>
        <time>2022-09-19T14:09:10.999Z</time>
      </trkpt>
      <trkpt lat="49.52344" lon="3.7445">
        <ele>183.76</ele>
        <time>2022-09-19T14:09:20.021Z</time>
      </trkpt>
      <trkpt lat="49.52335" lon="3.74448">
        <ele>182.25</ele>
        <time>2022-09-19T14:09:29.999Z</time>
      </trkpt>
      <trkpt lat="49.52327" lon="3.74447">
        <ele>180.63</ele>
        <time>2022-09-19T14:09:39.382Z</time>
      </trkpt>
      <trkpt lat="49.52321" lon="3.74444">
        <ele>179.36</ele>
        <time>2022-09-19T14:09:49.278Z</time>
      </trkpt>
      <trkpt lat="49.52311" lon="3.7444">
        <ele>180.64</ele>
        <time>2022-09-19T14:09:58.566Z</time>
      </trkpt>
      <trkpt lat="49.52296" lon="3.74434">
        <ele>183.75</ele>
        <time>2022-09-19T14:10:09.999Z</time>
      </trkpt>
      <trkpt lat="49.52283" lon="3.7443">
        <ele>186.34</ele>
        <time>2022-09-19T14:10:19.462Z</time>
      </trkpt>
      <trkpt lat="49.52268" lon="3.74426">
        <ele>189.41</ele>
        <time>2022-09-19T14:10:28.999Z</time>
      </trkpt>
      <trkpt lat="49.52255" lon="3.74423">
        <ele>192.26</ele>
        <time>2022-09-19T14:10:38.526Z</time>
      </trkpt>
      <trkpt lat="49.52243" lon="3.74421">
        <ele>194.57</ele>
        <time>2022-09-19T14:10:47.999Z</time>
      </trkpt>
      <trkpt lat="49.52232" lon="3.74417">
        <ele>195.96</ele>
        <time>2022-09-19T14:10:57.084Z</time>
      </trkpt>
      <trkpt lat="49.5222" lon="3.74415">
        <ele>197.32</ele>
        <time>2022-09-19T14:11:07.396Z</time>
      </trkpt>
      <trkpt lat="49.52211" lon="3.74415">
        <ele>197.91</ele>
        <time>2022-09-19T14:11:17.239Z</time>
      </trkpt>
      <trkpt lat="49.522" lon="3.74416">
        <ele>198.94</ele>
        <time>2022-09-19T14:11:26.999Z</time>
      </trkpt>
      <trkpt lat="49.52189" lon="3.74413">
        <ele>199.94</ele>
        <time>2022-09-19T14:11:36.493Z</time>
      </trkpt>
      <trkpt lat="49.52177" lon="3.74414">
        <ele>200.86</ele>
        <time>2022-09-19T14:11:45.887Z</time>
      </trkpt>
      <trkpt lat="49.52171" lon="3.74425">
        <ele>201.73</ele>
        <time>2022-09-19T14:11:55.193Z</time>
      </trkpt>
      <trkpt lat="49.52166" lon="3.74436">
        <ele>202.5</ele>
        <time>2022-09-19T14:12:04.396Z</time>
      </trkpt>
      <trkpt lat="49.52162" lon="3.74449">
        <ele>202.95</ele>
        <time>2022-09-19T14:12:13.464Z</time>
      </trkpt>
      <trkpt lat="49.52157" lon="3.74463">
        <ele>203.58</ele>
        <time>2022-09-19T14:12:23.512Z</time>
      </trkpt>
      <trkpt lat="49.52152" lon="3.74476">
        <ele>203.6</ele>
        <time>2022-09-19T14:12:32.928Z</time>
      </trkpt>
      <trkpt lat="49.52148" lon="3.74488">
        <ele>203.2</ele>
        <time>2022-09-19T14:12:42.006Z</time>
      </trkpt>
      <trkpt lat="49.52146" lon="3.74501">
        <ele>202.57</ele>
        <time>2022-09-19T14:12:51.999Z</time>
      </trkpt>
      <trkpt lat="49.52155" lon="3.7451">
        <ele>201.93</ele>
        <time>2022-09-19T14:13:01.465Z</time>
      </trkpt>
      <trkpt lat="49.52162" lon="3.74518">
        <ele>201.28</ele>
        <time>2022-09-19T14:13:10.532Z</time>
      </trkpt>
      <trkpt lat="49.52166" lon="3.74528">
        <ele>199.93</ele>
        <time>2022-09-19T14:13:19.999Z</time>
      </trkpt>
      <trkpt lat="49.52171" lon="3.74547">
        <ele>199.26</ele>
        <time>2022-09-19T14:13:29.271Z</time>
      </trkpt>
      <trkpt lat="49.52181" lon="3.7456">
        <ele>199.26</ele>
        <time>2022-09-19T14:13:39.305Z</time>
      </trkpt>
      <trkpt lat="49.52194" lon="3.74566">
        <ele>199.53</ele>
        <time>2022-09-19T14:13:49.306Z</time>
      </trkpt>
      <trkpt lat="49.52207" lon="3.74569">
        <ele>199.42</ele>
        <time>2022-09-19T14:13:58.431Z</time>
      </trkpt>
      <trkpt lat="49.52216" lon="3.74572">
        <ele>199.13</ele>
        <time>2022-09-19T14:14:07.452Z</time>
      </trkpt>
      <trkpt lat="49.52225" lon="3.74576">
        <ele>198.49</ele>
        <time>2022-09-19T14:14:16.492Z</time>
      </trkpt>
      <trkpt lat="49.52235" lon="3.74581">
        <ele>197.49</ele>
        <time>2022-09-19T14:14:25.988Z</time>
      </trkpt>
      <trkpt lat="49.52245" lon="3.74592">
        <ele>197.59</ele>
        <time>2022-09-19T14:14:35.170Z</time>
      </trkpt>
      <trkpt lat="49.52256" lon="3.74601">
        <ele>198.14</ele>
        <time>2022-09-19T14:14:44.999Z</time>
      </trkpt>
      <trkpt lat="49.52267" lon="3.74611">
        <ele>198.87</ele>
        <time>2022-09-19T14:14:54.069Z</time>
      </trkpt>
      <trkpt lat="49.52275" lon="3.74625">
        <ele>199.58</ele>
        <time>2022-09-19T14:15:03.431Z</time>
      </trkpt>
      <trkpt lat="49.52283" lon="3.74637">
        <ele>200.2</ele>
        <time>2022-09-19T14:15:12.972Z</time>
      </trkpt>
      <trkpt lat="49.52292" lon="3.74645">
        <ele>200.69</ele>
        <time>2022-09-19T14:15:22.305Z</time>
      </trkpt>
      <trkpt lat="49.52299" lon="3.74655">
        <ele>201.06</ele>
        <time>2022-09-19T14:15:31.568Z</time>
      </trkpt>
      <trkpt lat="49.52309" lon="3.74663">
        <ele>200.83</ele>
        <time>2022-09-19T14:15:40.999Z</time>
      </trkpt>
      <trkpt lat="49.52319" lon="3.74667">
        <ele>200.26</ele>
        <time>2022-09-19T14:15:50.047Z</time>
      </trkpt>
      <trkpt lat="49.5233" lon="3.74675">
        <ele>199.72</ele>
        <time>2022-09-19T14:15:59.289Z</time>
      </trkpt>
      <trkpt lat="49.52341" lon="3.74684">
        <ele>198.99</ele>
        <time>2022-09-19T14:16:08.532Z</time>
      </trkpt>
      <trkpt lat="49.52349" lon="3.74692">
        <ele>198</ele>
        <time>2022-09-19T14:16:17.755Z</time>
      </trkpt>
      <trkpt lat="49.52358" lon="3.74702">
        <ele>197.22</ele>
        <time>2022-09-19T14:16:26.889Z</time>
      </trkpt>
      <trkpt lat="49.52366" lon="3.74713">
        <ele>197.31</ele>
        <time>2022-09-19T14:16:35.999Z</time>
      </trkpt>
      <trkpt lat="49.52374" lon="3.74728">
        <ele>198.19</ele>
        <time>2022-09-19T14:16:45.471Z</time>
      </trkpt>
      <trkpt lat="49.52383" lon="3.74743">
        <ele>199.59</ele>
        <time>2022-09-19T14:16:54.771Z</time>
      </trkpt>
      <trkpt lat="49.52392" lon="3.74754">
        <ele>201.77</ele>
        <time>2022-09-19T14:17:04.012Z</time>
      </trkpt>
      <trkpt lat="49.52406" lon="3.74758">
        <ele>204.18</ele>
        <time>2022-09-19T14:17:13.346Z</time>
      </trkpt>
      <trkpt lat="49.52417" lon="3.74765">
        <ele>204.85</ele>
        <time>2022-09-19T14:17:22.470Z</time>
      </trkpt>
      <trkpt lat="49.52426" lon="3.74774">
        <ele>204.48</ele>
        <time>2022-09-19T14:17:31.711Z</time>
      </trkpt>
      <trkpt lat="49.52434" lon="3.74785">
        <ele>203.95</ele>
        <time>2022-09-19T14:17:41.051Z</time>
      </trkpt>
      <trkpt lat="49.52443" lon="3.74793">
        <ele>202.96</ele>
        <time>2022-09-19T14:17:50.331Z</time>
      </trkpt>
      <trkpt lat="49.5245" lon="3.74804">
        <ele>201.32</ele>
        <time>2022-09-19T14:17:59.448Z</time>
      </trkpt>
      <trkpt lat="49.52461" lon="3.7481">
        <ele>200.28</ele>
        <time>2022-09-19T14:18:08.999Z</time>
      </trkpt>
      <trkpt lat="49.52472" lon="3.74815">
        <ele>200.27</ele>
        <time>2022-09-19T14:18:18.491Z</time>
      </trkpt>
      <trkpt lat="49.52483" lon="3.74819">
        <ele>200.85</ele>
        <time>2022-09-19T14:18:27.999Z</time>
      </trkpt>
      <trkpt lat="49.52494" lon="3.74825">
        <ele>201.51</ele>
        <time>2022-09-19T14:18:37.286Z</time>
      </trkpt>
      <trkpt lat="49.52501" lon="3.74831">
        <ele>201.72</ele>
        <time>2022-09-19T14:18:46.999Z</time>
      </trkpt>
      <trkpt lat="49.52497" lon="3.74841">
        <ele>200.83</ele>
        <time>2022-09-19T14:18:56.999Z</time>
      </trkpt>
      <trkpt lat="49.52491" lon="3.7485">
        <ele>200.31</ele>
        <time>2022-09-19T14:19:06.999Z</time>
      </trkpt>
      <trkpt lat="49.5249" lon="3.74852">
        <ele>196.71</ele>
        <time>2022-09-19T14:21:24.999Z</time>
      </trkpt>
      <trkpt lat="49.52485" lon="3.74855">
        <ele>196.79</ele>
        <time>2022-09-19T14:21:34.999Z</time>
      </trkpt>
      <trkpt lat="49.52481" lon="3.74852">
        <ele>197.01</ele>
        <time>2022-09-19T14:21:45.999Z</time>
      </trkpt>
      <trkpt lat="49.52478" lon="3.7485">
        <ele>197.33</ele>
        <time>2022-09-19T14:21:55.999Z</time>
      </trkpt>
      <trkpt lat="49.52477" lon="3.74852">
        <ele>198.01</ele>
        <time>2022-09-19T14:22:19.530Z</time>
      </trkpt>
      <trkpt lat="49.52478" lon="3.74858">
        <ele>198.29</ele>
        <time>2022-09-19T14:22:29.999Z</time>
      </trkpt>
      <trkpt lat="49.5248" lon="3.7486">
        <ele>198.38</ele>
        <time>2022-09-19T14:22:39.999Z</time>
      </trkpt>
      <trkpt lat="49.52482" lon="3.74857">
        <ele>198.66</ele>
        <time>2022-09-19T14:22:49.999Z</time>
      </trkpt>
      <trkpt lat="49.52483" lon="3.74853">
        <ele>198.73</ele>
        <time>2022-09-19T14:22:59.999Z</time>
      </trkpt>
      <trkpt lat="49.52486" lon="3.74855">
        <ele>198.85</ele>
        <time>2022-09-19T14:23:09.566Z</time>
      </trkpt>
      <trkpt lat="49.52491" lon="3.74864">
        <ele>198.97</ele>
        <time>2022-09-19T14:23:18.999Z</time>
      </trkpt>
      <trkpt lat="49.52492" lon="3.74876">
        <ele>198.64</ele>
        <time>2022-09-19T14:23:28.164Z</time>
      </trkpt>
      <trkpt lat="49.52487" lon="3.7489">
        <ele>112.44</ele>
        <time>2022-09-19T14:23:37.649Z</time>
      </trkpt>
      <trkpt lat="49.52483" lon="3.74904">
        <ele>112.43</ele>
        <time>2022-09-19T14:23:46.999Z</time>
      </trkpt>
      <trkpt lat="49.52476" lon="3.74912">
        <ele>112.43</ele>
        <time>2022-09-19T14:23:56.620Z</time>
      </trkpt>
      <trkpt lat="49.52462" lon="3.74911">
        <ele>112.43</ele>
        <time>2022-09-19T14:24:06.029Z</time>
      </trkpt>
      <trkpt lat="49.52452" lon="3.74919">
        <ele>112.43</ele>
        <time>2022-09-19T14:24:15.999Z</time>
      </trkpt>
      <trkpt lat="49.5244" lon="3.74928">
        <ele>112.43</ele>
        <time>2022-09-19T14:24:25.999Z</time>
      </trkpt>
      <trkpt lat="49.52442" lon="3.74933">
        <ele>112.43</ele>
        <time>2022-09-19T14:24:35.399Z</time>
      </trkpt>
      <trkpt lat="49.52437" lon="3.74936">
        <ele>112.43</ele>
        <time>2022-09-19T14:24:44.999Z</time>
      </trkpt>
      <trkpt lat="49.52442" lon="3.74944">
        <ele>112.43</ele>
        <time>2022-09-19T14:24:54.111Z</time>
      </trkpt>
      <trkpt lat="49.52447" lon="3.74942">
        <ele>112.43</ele>
        <time>2022-09-19T14:25:03.392Z</time>
      </trkpt>
      <trkpt lat="49.52446" lon="3.74947">
        <ele>112.43</ele>
        <time>2022-09-19T14:25:12.506Z</time>
      </trkpt>
      <trkpt lat="49.52442" lon="3.74943">
        <ele>112.43</ele>
        <time>2022-09-19T14:25:21.999Z</time>
      </trkpt>
      <trkpt lat="49.52444" lon="3.74941">
        <ele>182.04</ele>
        <time>2022-09-19T14:25:31.999Z</time>
      </trkpt>
      <trkpt lat="49.52446" lon="3.74931">
        <ele>182.46</ele>
        <time>2022-09-19T14:25:41.999Z</time>
      </trkpt>
      <trkpt lat="49.52446" lon="3.74929">
        <ele>179.45</ele>
        <time>2022-09-19T14:26:04.999Z</time>
      </trkpt>
      <trkpt lat="49.52445" lon="3.74924">
        <ele>178.67</ele>
        <time>2022-09-19T14:26:14.665Z</time>
      </trkpt>
      <trkpt lat="49.5244" lon="3.7493">
        <ele>177.15</ele>
        <time>2022-09-19T14:26:24.392Z</time>
      </trkpt>
      <trkpt lat="49.52434" lon="3.74931">
        <ele>173.42</ele>
        <time>2022-09-19T14:26:33.565Z</time>
      </trkpt>
      <trkpt lat="49.5243" lon="3.74928">
        <ele>171.82</ele>
        <time>2022-09-19T14:26:42.999Z</time>
      </trkpt>
      <trkpt lat="49.52422" lon="3.74925">
        <ele>170.31</ele>
        <time>2022-09-19T14:26:52.999Z</time>
      </trkpt>
      <trkpt lat="49.52423" lon="3.7491">
        <ele>169.53</ele>
        <time>2022-09-19T14:27:02.193Z</time>
      </trkpt>
      <trkpt lat="49.5242" lon="3.74913">
        <ele>164.16</ele>
        <time>2022-09-19T14:27:11.311Z</time>
      </trkpt>
      <trkpt lat="49.52413" lon="3.74923">
        <ele>153.31</ele>
        <time>2022-09-19T14:27:20.386Z</time>
      </trkpt>
      <trkpt lat="49.52407" lon="3.74935">
        <ele>130.78</ele>
        <time>2022-09-19T14:27:30.999Z</time>
      </trkpt>
      <trkpt lat="49.52411" lon="3.74937">
        <ele>128.33</ele>
        <time>2022-09-19T14:27:40.999Z</time>
      </trkpt>
      <trkpt lat="49.5241" lon="3.74926">
        <ele>109.8</ele>
        <time>2022-09-19T14:27:50.999Z</time>
      </trkpt>
      <trkpt lat="49.52406" lon="3.74919">
        <ele>109.73</ele>
        <time>2022-09-19T14:28:01.447Z</time>
      </trkpt>
      <trkpt lat="49.52391" lon="3.74923">
        <ele>109.73</ele>
        <time>2022-09-19T14:28:11.207Z</time>
      </trkpt>
      <trkpt lat="49.52377" lon="3.74932">
        <ele>109.73</ele>
        <time>2022-09-19T14:28:20.868Z</time>
      </trkpt>
      <trkpt lat="49.5237" lon="3.74933">
        <ele>109.73</ele>
        <time>2022-09-19T14:28:29.999Z</time>
      </trkpt>
      <trkpt lat="49.52355" lon="3.7493">
        <ele>109.73</ele>
        <time>2022-09-19T14:28:40.228Z</time>
      </trkpt>
      <trkpt lat="49.52353" lon="3.74929">
        <ele>109.73</ele>
        <time>2022-09-19T14:28:49.247Z</time>
      </trkpt>
      <trkpt lat="49.52346" lon="3.74925">
        <ele>109.73</ele>
        <time>2022-09-19T14:28:58.999Z</time>
      </trkpt>
      <trkpt lat="49.52336" lon="3.74925">
        <ele>109.73</ele>
        <time>2022-09-19T14:29:08.771Z</time>
      </trkpt>
      <trkpt lat="49.52333" lon="3.74928">
        <ele>109.73</ele>
        <time>2022-09-19T14:29:18.009Z</time>
      </trkpt>
      <trkpt lat="49.52329" lon="3.74932">
        <ele>109.08</ele>
        <time>2022-09-19T14:29:27.311Z</time>
      </trkpt>
      <trkpt lat="49.52328" lon="3.74934">
        <ele>104.96</ele>
        <time>2022-09-19T14:29:36.313Z</time>
      </trkpt>
      <trkpt lat="49.52324" lon="3.74936">
        <ele>99.06</ele>
        <time>2022-09-19T14:29:45.349Z</time>
      </trkpt>
      <trkpt lat="49.52316" lon="3.74939">
        <ele>84.14</ele>
        <time>2022-09-19T14:29:54.999Z</time>
      </trkpt>
      <trkpt lat="49.52312" lon="3.7494">
        <ele>67.04</ele>
        <time>2022-09-19T14:30:04.332Z</time>
      </trkpt>
      <trkpt lat="49.5231" lon="3.74927">
        <ele>63.97</ele>
        <time>2022-09-19T14:30:14.466Z</time>
      </trkpt>
      <trkpt lat="49.52305" lon="3.74918">
        <ele>59.18</ele>
        <time>2022-09-19T14:30:23.999Z</time>
      </trkpt>
      <trkpt lat="49.52297" lon="3.74918">
        <ele>49.01</ele>
        <time>2022-09-19T14:30:33.466Z</time>
      </trkpt>
      <trkpt lat="49.52293" lon="3.7493">
        <ele>37.81</ele>
        <time>2022-09-19T14:30:42.999Z</time>
      </trkpt>
      <trkpt lat="49.52283" lon="3.74931">
        <ele>27.46</ele>
        <time>2022-09-19T14:30:52.406Z</time>
      </trkpt>
      <trkpt lat="49.52274" lon="3.74933">
        <ele>20.94</ele>
        <time>2022-09-19T14:31:01.965Z</time>
      </trkpt>
      <trkpt lat="49.52259" lon="3.74923">
        <ele>21.44</ele>
        <time>2022-09-19T14:31:11.330Z</time>
      </trkpt>
      <trkpt lat="49.52251" lon="3.74921">
        <ele>23.95</ele>
        <time>2022-09-19T14:31:20.472Z</time>
      </trkpt>
      <trkpt lat="49.52231" lon="3.74914">
        <ele>30.6</ele>
        <time>2022-09-19T14:31:30.999Z</time>
      </trkpt>
      <trkpt lat="49.5221" lon="3.74902">
        <ele>37.37</ele>
        <time>2022-09-19T14:31:40.367Z</time>
      </trkpt>
      <trkpt lat="49.52201" lon="3.74887">
        <ele>45.27</ele>
        <time>2022-09-19T14:31:49.469Z</time>
      </trkpt>
      <trkpt lat="49.5219" lon="3.74875">
        <ele>53.46</ele>
        <time>2022-09-19T14:31:58.531Z</time>
      </trkpt>
      <trkpt lat="49.5218" lon="3.74874">
        <ele>63.2</ele>
        <time>2022-09-19T14:32:08.346Z</time>
      </trkpt>
      <trkpt lat="49.5217" lon="3.7487">
        <ele>73.02</ele>
        <time>2022-09-19T14:32:17.351Z</time>
      </trkpt>
      <trkpt lat="49.52163" lon="3.74881">
        <ele>83</ele>
        <time>2022-09-19T14:32:26.529Z</time>
      </trkpt>
      <trkpt lat="49.52155" lon="3.74898">
        <ele>91.85</ele>
        <time>2022-09-19T14:32:36.029Z</time>
      </trkpt>
      <trkpt lat="49.5215" lon="3.74905">
        <ele>99.38</ele>
        <time>2022-09-19T14:32:45.311Z</time>
      </trkpt>
      <trkpt lat="49.52151" lon="3.74912">
        <ele>105.12</ele>
        <time>2022-09-19T14:32:54.364Z</time>
      </trkpt>
      <trkpt lat="49.5215" lon="3.74922">
        <ele>111.31</ele>
        <time>2022-09-19T14:33:03.999Z</time>
      </trkpt>
      <trkpt lat="49.52151" lon="3.74935">
        <ele>116.13</ele>
        <time>2022-09-19T14:33:13.999Z</time>
      </trkpt>
      <trkpt lat="49.52146" lon="3.74955">
        <ele>118.96</ele>
        <time>2022-09-19T14:33:23.184Z</time>
      </trkpt>
      <trkpt lat="49.52143" lon="3.7497">
        <ele>120.57</ele>
        <time>2022-09-19T14:33:32.228Z</time>
      </trkpt>
      <trkpt lat="49.52141" lon="3.74989">
        <ele>122.01</ele>
        <time>2022-09-19T14:33:41.510Z</time>
      </trkpt>
      <trkpt lat="49.52139" lon="3.75006">
        <ele>122.66</ele>
        <time>2022-09-19T14:33:50.889Z</time>
      </trkpt>
      <trkpt lat="49.52139" lon="3.75022">
        <ele>122.68</ele>
        <time>2022-09-19T14:34:00.030Z</time>
      </trkpt>
      <trkpt lat="49.52137" lon="3.75036">
        <ele>121.87</ele>
        <time>2022-09-19T14:34:09.166Z</time>
      </trkpt>
      <trkpt lat="49.52136" lon="3.75049">
        <ele>114.84</ele>
        <time>2022-09-19T14:34:18.487Z</time>
      </trkpt>
      <trkpt lat="49.52131" lon="3.75061">
        <ele>114.83</ele>
        <time>2022-09-19T14:34:27.769Z</time>
      </trkpt>
      <trkpt lat="49.52129" lon="3.7507">
        <ele>114.83</ele>
        <time>2022-09-19T14:34:36.999Z</time>
      </trkpt>
      <trkpt lat="49.52129" lon="3.75062">
        <ele>114.83</ele>
        <time>2022-09-19T14:34:46.999Z</time>
      </trkpt>
      <trkpt lat="49.52122" lon="3.75076">
        <ele>114.83</ele>
        <time>2022-09-19T14:34:56.469Z</time>
      </trkpt>
      <trkpt lat="49.52118" lon="3.75093">
        <ele>114.83</ele>
        <time>2022-09-19T14:35:05.911Z</time>
      </trkpt>
      <trkpt lat="49.52113" lon="3.75106">
        <ele>114.83</ele>
        <time>2022-09-19T14:35:15.306Z</time>
      </trkpt>
      <trkpt lat="49.52107" lon="3.75121">
        <ele>114.83</ele>
        <time>2022-09-19T14:35:24.451Z</time>
      </trkpt>
      <trkpt lat="49.52099" lon="3.75139">
        <ele>114.83</ele>
        <time>2022-09-19T14:35:34.310Z</time>
      </trkpt>
      <trkpt lat="49.52087" lon="3.75152">
        <ele>114.83</ele>
        <time>2022-09-19T14:35:43.999Z</time>
      </trkpt>
      <trkpt lat="49.52084" lon="3.75155">
        <ele>114.83</ele>
        <time>2022-09-19T14:35:53.999Z</time>
      </trkpt>
      <trkpt lat="49.52082" lon="3.75157">
        <ele>114.83</ele>
        <time>2022-09-19T14:36:25.999Z</time>
      </trkpt>
      <trkpt lat="49.5208" lon="3.75164">
        <ele>112.44</ele>
        <time>2022-09-19T14:36:35.999Z</time>
      </trkpt>
      <trkpt lat="49.5208" lon="3.75166">
        <ele>112.43</ele>
        <time>2022-09-19T14:36:46.999Z</time>
      </trkpt>
      <trkpt lat="49.52081" lon="3.75163">
        <ele>114.83</ele>
        <time>2022-09-19T14:37:23.999Z</time>
      </trkpt>
      <trkpt lat="49.52085" lon="3.75157">
        <ele>114.83</ele>
        <time>2022-09-19T14:37:33.309Z</time>
      </trkpt>
      <trkpt lat="49.52088" lon="3.75151">
        <ele>114.83</ele>
        <time>2022-09-19T14:37:42.845Z</time>
      </trkpt>
      <trkpt lat="49.52084" lon="3.75155">
        <ele>114.83</ele>
        <time>2022-09-19T14:37:52.999Z</time>
      </trkpt>
      <trkpt lat="49.52079" lon="3.75169">
        <ele>114.83</ele>
        <time>2022-09-19T14:38:02.513Z</time>
      </trkpt>
      <trkpt lat="49.52078" lon="3.75168">
        <ele>112.43</ele>
        <time>2022-09-19T14:38:11.999Z</time>
      </trkpt>
      <trkpt lat="49.52079" lon="3.75166">
        <ele>114.83</ele>
        <time>2022-09-19T14:38:21.512Z</time>
      </trkpt>
      <trkpt lat="49.5208" lon="3.75168">
        <ele>114.83</ele>
        <time>2022-09-19T14:38:30.999Z</time>
      </trkpt>
      <trkpt lat="49.5208" lon="3.7517">
        <ele>114.83</ele>
        <time>2022-09-19T14:38:40.468Z</time>
      </trkpt>
      <trkpt lat="49.52079" lon="3.75169">
        <ele>114.83</ele>
        <time>2022-09-19T14:38:54.369Z</time>
      </trkpt>
      <trkpt lat="49.52073" lon="3.75177">
        <ele>114.83</ele>
        <time>2022-09-19T14:39:03.446Z</time>
      </trkpt>
      <trkpt lat="49.5207" lon="3.75189">
        <ele>112.43</ele>
        <time>2022-09-19T14:39:12.813Z</time>
      </trkpt>
      <trkpt lat="49.5208" lon="3.75199">
        <ele>112.03</ele>
        <time>2022-09-19T14:39:22.208Z</time>
      </trkpt>
      <trkpt lat="49.52086" lon="3.75216">
        <ele>113.33</ele>
        <time>2022-09-19T14:39:31.999Z</time>
      </trkpt>
      <trkpt lat="49.52092" lon="3.75233">
        <ele>114.55</ele>
        <time>2022-09-19T14:39:41.329Z</time>
      </trkpt>
      <trkpt lat="49.52097" lon="3.75249">
        <ele>112.27</ele>
        <time>2022-09-19T14:39:50.486Z</time>
      </trkpt>
      <trkpt lat="49.52095" lon="3.75264">
        <ele>112.23</ele>
        <time>2022-09-19T14:40:00.999Z</time>
      </trkpt>
      <trkpt lat="49.52085" lon="3.75273">
        <ele>112.23</ele>
        <time>2022-09-19T14:40:10.425Z</time>
      </trkpt>
      <trkpt lat="49.52073" lon="3.75277">
        <ele>112.23</ele>
        <time>2022-09-19T14:40:19.570Z</time>
      </trkpt>
      <trkpt lat="49.52063" lon="3.75282">
        <ele>112.23</ele>
        <time>2022-09-19T14:40:29.565Z</time>
      </trkpt>
      <trkpt lat="49.52055" lon="3.75288">
        <ele>112.23</ele>
        <time>2022-09-19T14:40:39.166Z</time>
      </trkpt>
      <trkpt lat="49.52049" lon="3.753">
        <ele>112.53</ele>
        <time>2022-09-19T14:40:48.451Z</time>
      </trkpt>
      <trkpt lat="49.52052" lon="3.75309">
        <ele>112.53</ele>
        <time>2022-09-19T14:40:57.999Z</time>
      </trkpt>
      <trkpt lat="49.52056" lon="3.75316">
        <ele>112.16</ele>
        <time>2022-09-19T14:41:07.111Z</time>
      </trkpt>
      <trkpt lat="49.5206" lon="3.75325">
        <ele>112.5</ele>
        <time>2022-09-19T14:41:16.999Z</time>
      </trkpt>
      <trkpt lat="49.52068" lon="3.7533">
        <ele>112.53</ele>
        <time>2022-09-19T14:41:26.999Z</time>
      </trkpt>
      <trkpt lat="49.52068" lon="3.75325">
        <ele>112.03</ele>
        <time>2022-09-19T14:41:36.090Z</time>
      </trkpt>
      <trkpt lat="49.52075" lon="3.75337">
        <ele>112.53</ele>
        <time>2022-09-19T14:41:45.168Z</time>
      </trkpt>
      <trkpt lat="49.52075" lon="3.75357">
        <ele>112.03</ele>
        <time>2022-09-19T14:41:54.594Z</time>
      </trkpt>
      <trkpt lat="49.52073" lon="3.75362">
        <ele>112.03</ele>
        <time>2022-09-19T14:42:03.999Z</time>
      </trkpt>
      <trkpt lat="49.52072" lon="3.75362">
        <ele>112.53</ele>
        <time>2022-09-19T14:42:13.590Z</time>
      </trkpt>
      <trkpt lat="49.52068" lon="3.75363">
        <ele>112.03</ele>
        <time>2022-09-19T14:42:22.999Z</time>
      </trkpt>
      <trkpt lat="49.52064" lon="3.75364">
        <ele>112.03</ele>
        <time>2022-09-19T14:42:32.324Z</time>
      </trkpt>
      <trkpt lat="49.52064" lon="3.75369">
        <ele>112.33</ele>
        <time>2022-09-19T14:42:41.999Z</time>
      </trkpt>
      <trkpt lat="49.52064" lon="3.7537">
        <ele>112.43</ele>
        <time>2022-09-19T14:42:47.999Z</time>
      </trkpt>
    </trkseg>
  </trk>
</gpx>